PWSweather.com
Personal Weather Stations
Station Observations
DL5ARK
SonnebergDE

SonnebergDE

Lat: 50.34904861, Lon: 11.18112087

Elevation: 1214

Station Type: Selfmade

http://www.sumbarg.de

High Low Average
Temperature 60.1°F15.6°C 39.3°F4.1°C 52.0°F11.1°C
Dew Point 58.4°F14.7°C 44.9°F7.2°C 54.3°F12.4°C
Winds 5.8 mph 9.3 kmh Calm Calm Calm SCalm S
Wind Gusts 5.8 mph9.3 kmh -- --
Humidity 89% 75% 82%
Pressure 30.13 in1020.3 mb 29.97 in1014.9 mb -
Precipitation 0.16 in4.1 mm - -
Hour Temp Dew Point Humidity Winds Wind Gusts Pressure Precip Precip Rate Daily Precip Total
12:02 AM 57.0°F13.9°C 60.3°F15.7°C 87% Calm Calm -- 29.96 in1014.6 mb 0.00 in0.0 mm 0.00 in0.0 mm 0.02 in0.5 mm
12:05 AM 57.0°F13.9°C 60.3°F15.7°C 87% Calm Calm -- 29.96 in1014.6 mb 0.00 in0.0 mm 0.00 in0.0 mm 0.02 in0.5 mm
12:08 AM 57.1°F13.9°C 60.2°F15.7°C 87% Calm Calm -- 29.96 in1014.6 mb 0.00 in0.0 mm 0.00 in0.0 mm 0.02 in0.5 mm
12:11 AM 57.1°F13.9°C 60.3°F15.7°C 87% Calm Calm -- 29.96 in1014.6 mb 0.00 in0.0 mm 0.00 in0.0 mm 0.02 in0.5 mm
12:14 AM 57.1°F13.9°C 60.2°F15.7°C 87% Calm Calm -- 29.96 in1014.6 mb 0.00 in0.0 mm 0.00 in0.0 mm 0.02 in0.5 mm
12:17 AM 57.1°F13.9°C 60.2°F15.7°C 88% Calm Calm -- 29.96 in1014.6 mb 0.00 in0.0 mm 0.00 in0.0 mm 0.02 in0.5 mm
12:20 AM 57.1°F13.9°C 60.1°F15.6°C 86% Calm Calm -- 29.96 in1014.6 mb 0.00 in0.0 mm 0.00 in0.0 mm 0.02 in0.5 mm
12:23 AM 57.2°F14.0°C 60.3°F15.7°C 87% 0.4 mph W0.6 kmh W 0.4 mph0.6 kmh 29.96 in1014.6 mb 0.00 in0.0 mm 0.00 in0.0 mm 0.02 in0.5 mm
12:26 AM 57.1°F13.9°C 60.7°F15.9°C 88% Calm Calm -- 29.96 in1014.6 mb 0.00 in0.0 mm 0.00 in0.0 mm 0.02 in0.5 mm
12:29 AM 57.1°F13.9°C 60.4°F15.8°C 88% 3.6 mph NW5.8 kmh NW 3.7 mph6.0 kmh 29.96 in1014.6 mb 0.00 in0.0 mm 0.00 in0.0 mm 0.02 in0.5 mm
12:32 AM 57.1°F13.9°C 60.4°F15.8°C 88% Calm Calm -- 29.96 in1014.6 mb 0.00 in0.0 mm 0.00 in0.0 mm 0.02 in0.5 mm
12:35 AM 57.1°F13.9°C 60.3°F15.7°C 88% 3.6 mph WNW5.8 kmh WNW 3.6 mph5.8 kmh 29.96 in1014.6 mb 0.00 in0.0 mm 0.00 in0.0 mm 0.02 in0.5 mm
12:38 AM 56.9°F13.8°C 60.1°F15.6°C 88% 1.6 mph NNW2.6 kmh NNW 1.6 mph2.6 kmh 29.96 in1014.6 mb 0.00 in0.0 mm 0.00 in0.0 mm 0.02 in0.5 mm
12:41 AM 56.5°F13.6°C 59.7°F15.4°C 87% 1.2 mph NNW1.9 kmh NNW 1.2 mph1.9 kmh 29.96 in1014.6 mb 0.00 in0.0 mm 0.00 in0.0 mm 0.02 in0.5 mm
12:44 AM 56.3°F13.5°C 59.4°F15.2°C 86% 0.8 mph NNW1.3 kmh NNW 0.8 mph1.3 kmh 29.96 in1014.6 mb 0.00 in0.0 mm 0.00 in0.0 mm 0.02 in0.5 mm
12:47 AM 56.1°F13.4°C 59.4°F15.2°C 86% 1.2 mph WNW1.9 kmh WNW 1.2 mph1.9 kmh 29.96 in1014.6 mb 0.00 in0.0 mm 0.00 in0.0 mm 0.02 in0.5 mm
12:50 AM 56.2°F13.4°C 59.2°F15.1°C 86% 2.0 mph NNW3.2 kmh NNW 2.0 mph3.2 kmh 29.96 in1014.6 mb 0.00 in0.0 mm 0.00 in0.0 mm 0.02 in0.5 mm
12:53 AM 56.0°F13.3°C 59.3°F15.2°C 86% 1.6 mph WNW2.6 kmh WNW 1.6 mph2.6 kmh 29.97 in1014.9 mb 0.00 in0.0 mm 0.00 in0.0 mm 0.02 in0.5 mm
12:56 AM 55.7°F13.2°C 58.8°F14.9°C 85% 5.3 mph W8.5 kmh W 5.3 mph8.5 kmh 29.97 in1014.9 mb 0.00 in0.0 mm 0.00 in0.0 mm 0.02 in0.5 mm
12:59 AM 55.5°F13.1°C 58.8°F14.9°C 85% 2.4 mph W3.9 kmh W 2.4 mph3.9 kmh 29.97 in1014.9 mb 0.00 in0.0 mm 0.00 in0.0 mm 0.02 in0.5 mm
01:02 AM 55.3°F12.9°C 58.3°F14.6°C 85% 5.8 mph NW9.3 kmh NW 5.8 mph9.3 kmh 29.97 in1014.9 mb 0.00 in0.0 mm 0.00 in0.0 mm 0.02 in0.5 mm
01:05 AM 55.2°F12.9°C 58.4°F14.7°C 85% 4.0 mph WNW6.4 kmh WNW 4.0 mph6.4 kmh 29.97 in1014.9 mb 0.00 in0.0 mm 0.00 in0.0 mm 0.02 in0.5 mm
01:14 AM 55.1°F12.8°C 58.2°F14.6°C 85% 1.2 mph NNW1.9 kmh NNW 1.2 mph1.9 kmh 29.97 in1014.9 mb 0.00 in0.0 mm 0.00 in0.0 mm 0.04 in1.0 mm
01:17 AM 54.8°F12.7°C 57.9°F14.4°C 85% 4.0 mph WNW6.4 kmh WNW 4.0 mph6.4 kmh 29.97 in1014.9 mb 0.00 in0.0 mm 0.00 in0.0 mm 0.04 in1.0 mm
01:20 AM 54.8°F12.7°C 58.1°F14.5°C 85% 2.4 mph NW3.9 kmh NW 2.4 mph3.9 kmh 29.98 in1015.2 mb 0.00 in0.0 mm 0.00 in0.0 mm 0.04 in1.0 mm
01:23 AM 54.7°F12.6°C 58.0°F14.4°C 85% 1.2 mph W1.9 kmh W 1.2 mph1.9 kmh 29.98 in1015.2 mb 0.00 in0.0 mm 0.00 in0.0 mm 0.04 in1.0 mm
01:26 AM 54.5°F12.5°C 57.9°F14.4°C 85% 4.4 mph NNW7.1 kmh NNW 4.5 mph7.2 kmh 29.98 in1015.2 mb 0.00 in0.0 mm 0.00 in0.0 mm 0.04 in1.0 mm
01:29 AM 54.5°F12.5°C 57.8°F14.3°C 85% 2.0 mph WNW3.2 kmh WNW 2.0 mph3.2 kmh 29.98 in1015.2 mb 0.00 in0.0 mm 0.00 in0.0 mm 0.04 in1.0 mm
01:32 AM 54.4°F12.4°C 57.7°F14.3°C 85% 2.4 mph NNW3.9 kmh NNW 2.4 mph3.9 kmh 29.98 in1015.2 mb 0.00 in0.0 mm 0.00 in0.0 mm 0.04 in1.0 mm
01:35 AM 54.4°F12.4°C 57.2°F14.0°C 83% Calm Calm -- 29.98 in1015.2 mb 0.00 in0.0 mm 0.00 in0.0 mm 0.04 in1.0 mm
01:38 AM 54.5°F12.5°C 57.6°F14.2°C 85% 2.0 mph NNW3.2 kmh NNW 2.0 mph3.2 kmh 29.98 in1015.2 mb 0.00 in0.0 mm 0.00 in0.0 mm 0.04 in1.0 mm
01:41 AM 54.4°F12.4°C 57.7°F14.3°C 85% 0.8 mph 1.3 kmh 0.8 mph1.3 kmh 29.98 in1015.2 mb 0.00 in0.0 mm 0.00 in0.0 mm 0.04 in1.0 mm
01:44 AM 54.4°F12.4°C 57.5°F14.2°C 84% 2.0 mph 3.2 kmh 2.0 mph3.2 kmh 29.98 in1015.2 mb 0.00 in0.0 mm 0.00 in0.0 mm 0.04 in1.0 mm
01:47 AM 54.3°F12.4°C 57.5°F14.2°C 85% 2.3 mph NW3.7 kmh NW 2.3 mph3.7 kmh 29.98 in1015.2 mb 0.00 in0.0 mm 0.00 in0.0 mm 0.04 in1.0 mm
01:50 AM 54.3°F12.4°C 57.2°F14.0°C 85% Calm Calm -- 29.99 in1015.6 mb 0.00 in0.0 mm 0.00 in0.0 mm 0.04 in1.0 mm
01:53 AM 54.3°F12.4°C 57.5°F14.2°C 85% Calm Calm -- 30.00 in1015.9 mb 0.00 in0.0 mm 0.00 in0.0 mm 0.04 in1.0 mm
01:56 AM 54.4°F12.4°C 57.6°F14.2°C 85% Calm Calm -- 30.00 in1015.9 mb 0.00 in0.0 mm 0.00 in0.0 mm 0.04 in1.0 mm
01:59 AM 54.2°F12.3°C 57.3°F14.1°C 84% Calm Calm -- 29.99 in1015.6 mb 0.00 in0.0 mm 0.00 in0.0 mm 0.06 in1.5 mm
02:02 AM 54.1°F12.3°C 57.6°F14.2°C 85% Calm Calm -- 29.99 in1015.6 mb 0.00 in0.0 mm 0.00 in0.0 mm 0.06 in1.5 mm
02:05 AM 54.1°F12.3°C 57.2°F14.0°C 84% Calm Calm -- 30.00 in1015.9 mb 0.00 in0.0 mm 0.00 in0.0 mm 0.06 in1.5 mm
02:08 AM 54.1°F12.3°C 57.5°F14.2°C 85% Calm Calm -- 30.00 in1015.9 mb 0.00 in0.0 mm 0.00 in0.0 mm 0.06 in1.5 mm
02:11 AM 54.1°F12.3°C 57.5°F14.2°C 85% Calm Calm -- 30.00 in1015.9 mb 0.00 in0.0 mm 0.00 in0.0 mm 0.06 in1.5 mm
02:14 AM 54.1°F12.3°C 57.5°F14.2°C 85% Calm Calm -- 30.00 in1015.9 mb 0.00 in0.0 mm 0.00 in0.0 mm 0.06 in1.5 mm
02:17 AM 53.9°F12.2°C 57.1°F13.9°C 84% Calm Calm -- 30.00 in1015.9 mb 0.00 in0.0 mm 0.00 in0.0 mm 0.06 in1.5 mm
02:20 AM 53.8°F12.1°C 56.8°F13.8°C 84% 1.6 mph NNE2.6 kmh NNE 1.6 mph2.6 kmh 30.00 in1015.9 mb 0.00 in0.0 mm 0.00 in0.0 mm 0.06 in1.5 mm
02:23 AM 53.8°F12.1°C 56.8°F13.8°C 84% 0.8 mph 1.3 kmh 0.8 mph1.3 kmh 30.00 in1015.9 mb 0.00 in0.0 mm 0.00 in0.0 mm 0.06 in1.5 mm
02:26 AM 53.7°F12.1°C 57.1°F13.9°C 85% 0.4 mph WNW0.6 kmh WNW 0.4 mph0.6 kmh 30.00 in1015.9 mb 0.00 in0.0 mm 0.00 in0.0 mm 0.06 in1.5 mm
02:29 AM 53.6°F12.0°C 57.1°F13.9°C 84% Calm Calm -- 30.01 in1016.3 mb 0.00 in0.0 mm 0.00 in0.0 mm 0.08 in2.0 mm
02:32 AM 53.6°F12.0°C 56.9°F13.8°C 84% Calm Calm -- 30.01 in1016.3 mb 0.00 in0.0 mm 0.00 in0.0 mm 0.08 in2.0 mm
02:35 AM 53.6°F12.0°C 56.7°F13.7°C 84% 0.8 mph E1.3 kmh E 0.8 mph1.3 kmh 30.01 in1016.3 mb 0.00 in0.0 mm 0.00 in0.0 mm 0.08 in2.0 mm
02:38 AM 53.5°F11.9°C 56.6°F13.7°C 84% Calm Calm -- 30.01 in1016.3 mb 0.00 in0.0 mm 0.00 in0.0 mm 0.08 in2.0 mm
02:41 AM 53.3°F11.8°C 56.3°F13.5°C 83% Calm Calm -- 30.01 in1016.3 mb 0.00 in0.0 mm 0.00 in0.0 mm 0.08 in2.0 mm
02:44 AM 53.0°F11.7°C 56.4°F13.6°C 84% Calm Calm -- 30.01 in1016.3 mb 0.00 in0.0 mm 0.00 in0.0 mm 0.08 in2.0 mm
02:47 AM 53.2°F11.8°C 56.4°F13.6°C 83% Calm Calm -- 30.01 in1016.3 mb 0.00 in0.0 mm 0.00 in0.0 mm 0.08 in2.0 mm
02:50 AM 53.2°F11.8°C 56.6°F13.7°C 84% Calm Calm -- 30.01 in1016.3 mb 0.00 in0.0 mm 0.00 in0.0 mm 0.08 in2.0 mm
02:53 AM 53.2°F11.8°C 56.6°F13.7°C 84% Calm Calm -- 30.01 in1016.3 mb 0.00 in0.0 mm 0.00 in0.0 mm 0.08 in2.0 mm
02:56 AM 53.3°F11.8°C 56.6°F13.7°C 85% Calm Calm -- 30.01 in1016.3 mb 0.00 in0.0 mm 0.00 in0.0 mm 0.08 in2.0 mm
02:59 AM 53.0°F11.7°C 56.6°F13.7°C 84% Calm Calm -- 30.01 in1016.3 mb 0.00 in0.0 mm 0.00 in0.0 mm 0.08 in2.0 mm
03:02 AM 53.0°F11.7°C 56.8°F13.8°C 85% Calm Calm -- 30.01 in1016.3 mb 0.00 in0.0 mm 0.00 in0.0 mm 0.08 in2.0 mm
03:05 AM 53.2°F11.8°C 56.8°F13.8°C 85% Calm Calm -- 30.01 in1016.3 mb 0.00 in0.0 mm 0.00 in0.0 mm 0.08 in2.0 mm
03:08 AM 53.0°F11.7°C 56.7°F13.7°C 85% Calm Calm -- 30.01 in1016.3 mb 0.00 in0.0 mm 0.00 in0.0 mm 0.08 in2.0 mm
03:14 AM 53.2°F11.8°C 56.7°F13.7°C 85% 0.8 mph WSW1.3 kmh WSW 0.8 mph1.3 kmh 30.01 in1016.3 mb 0.00 in0.0 mm 0.00 in0.0 mm 0.10 in2.5 mm
03:17 AM 53.2°F11.8°C 56.8°F13.8°C 85% 0.4 mph W0.6 kmh W 0.4 mph0.6 kmh 30.02 in1016.6 mb 0.00 in0.0 mm 0.00 in0.0 mm 0.10 in2.5 mm
03:20 AM 53.2°F11.8°C 56.8°F13.8°C 86% 2.0 mph WSW3.2 kmh WSW 2.0 mph3.2 kmh 30.01 in1016.3 mb 0.00 in0.0 mm 0.00 in0.0 mm 0.10 in2.5 mm
03:23 AM 53.0°F11.7°C 56.7°F13.7°C 86% 0.8 mph W1.3 kmh W 0.8 mph1.3 kmh 30.02 in1016.6 mb 0.00 in0.0 mm 0.00 in0.0 mm 0.10 in2.5 mm
03:26 AM 53.2°F11.8°C 56.2°F13.4°C 84% 0.8 mph NW1.3 kmh NW 0.8 mph1.3 kmh 30.03 in1016.9 mb 0.00 in0.0 mm 0.00 in0.0 mm 0.10 in2.5 mm
03:29 AM 53.0°F11.7°C 56.5°F13.6°C 85% 1.6 mph NW2.6 kmh NW 1.6 mph2.6 kmh 30.02 in1016.6 mb 0.00 in0.0 mm 0.00 in0.0 mm 0.10 in2.5 mm
03:32 AM 53.0°F11.7°C 56.5°F13.6°C 86% 0.8 mph 1.3 kmh 0.8 mph1.3 kmh 30.03 in1016.9 mb 0.00 in0.0 mm 0.00 in0.0 mm 0.10 in2.5 mm
03:35 AM 53.0°F11.7°C 56.5°F13.6°C 85% 0.8 mph NNW1.3 kmh NNW 0.8 mph1.3 kmh 30.03 in1016.9 mb 0.00 in0.0 mm 0.00 in0.0 mm 0.10 in2.5 mm
03:38 AM 52.8°F11.6°C 56.6°F13.7°C 85% Calm Calm -- 30.03 in1016.9 mb 0.00 in0.0 mm 0.00 in0.0 mm 0.10 in2.5 mm
03:41 AM 52.9°F11.6°C 56.5°F13.6°C 86% Calm Calm -- 30.03 in1016.9 mb 0.00 in0.0 mm 0.00 in0.0 mm 0.10 in2.5 mm
03:44 AM 52.9°F11.6°C 56.4°F13.6°C 85% Calm Calm -- 30.03 in1016.9 mb 0.00 in0.0 mm 0.00 in0.0 mm 0.10 in2.5 mm
03:47 AM 52.9°F11.6°C 56.5°F13.6°C 86% Calm Calm -- 30.03 in1016.9 mb 0.00 in0.0 mm 0.00 in0.0 mm 0.12 in3.0 mm
03:50 AM 52.7°F11.5°C 56.5°F13.6°C 86% 2.0 mph NW3.2 kmh NW 2.0 mph3.2 kmh 30.03 in1016.9 mb 0.00 in0.0 mm 0.00 in0.0 mm 0.12 in3.0 mm
03:53 AM 52.7°F11.5°C 56.1°F13.4°C 85% 1.6 mph 2.6 kmh 1.6 mph2.6 kmh 30.03 in1016.9 mb 0.00 in0.0 mm 0.00 in0.0 mm 0.12 in3.0 mm
03:56 AM 52.6°F11.4°C 56.2°F13.4°C 85% 1.6 mph 2.6 kmh 1.6 mph2.6 kmh 30.03 in1016.9 mb 0.00 in0.0 mm 0.00 in0.0 mm 0.12 in3.0 mm
03:59 AM 52.5°F11.4°C 56.3°F13.5°C 85% Calm Calm -- 30.03 in1016.9 mb 0.00 in0.0 mm 0.00 in0.0 mm 0.12 in3.0 mm
04:02 AM 52.6°F11.4°C 56.4°F13.6°C 86% Calm Calm -- 30.03 in1016.9 mb 0.00 in0.0 mm 0.00 in0.0 mm 0.12 in3.0 mm
04:05 AM 52.5°F11.4°C 56.3°F13.5°C 86% 1.2 mph 1.9 kmh 1.2 mph1.9 kmh 30.03 in1016.9 mb 0.00 in0.0 mm 0.00 in0.0 mm 0.12 in3.0 mm
04:11 AM 52.5°F11.4°C 56.1°F13.4°C 85% Calm Calm -- 30.03 in1016.9 mb 0.00 in0.0 mm 0.00 in0.0 mm 0.12 in3.0 mm
04:14 AM 52.5°F11.4°C 56.1°F13.4°C 86% 1.2 mph NW1.9 kmh NW 1.2 mph1.9 kmh 30.03 in1016.9 mb 0.00 in0.0 mm 0.00 in0.0 mm 0.12 in3.0 mm
04:26 AM 52.5°F11.4°C 55.8°F13.2°C 86% Calm Calm -- 30.03 in1016.9 mb 0.00 in0.0 mm 0.00 in0.0 mm 0.14 in3.6 mm
04:29 AM 52.5°F11.4°C 56.1°F13.4°C 85% Calm Calm -- 30.03 in1016.9 mb 0.00 in0.0 mm 0.00 in0.0 mm 0.14 in3.6 mm
04:35 AM 52.4°F11.3°C 56.0°F13.3°C 86% Calm Calm -- 30.04 in1017.3 mb 0.00 in0.0 mm 0.00 in0.0 mm 0.14 in3.6 mm
04:38 AM 52.4°F11.3°C 56.0°F13.3°C 86% 0.4 mph NW0.6 kmh NW 0.4 mph0.6 kmh 30.04 in1017.3 mb 0.00 in0.0 mm 0.00 in0.0 mm 0.14 in3.6 mm
04:41 AM 52.3°F11.3°C 56.0°F13.3°C 86% Calm Calm -- 30.04 in1017.3 mb 0.00 in0.0 mm 0.00 in0.0 mm 0.14 in3.6 mm
04:44 AM 52.4°F11.3°C 55.9°F13.3°C 86% Calm Calm -- 30.04 in1017.3 mb 0.00 in0.0 mm 0.00 in0.0 mm 0.14 in3.6 mm
04:47 AM 52.4°F11.3°C 55.5°F13.1°C 85% 1.2 mph W1.9 kmh W 1.2 mph1.9 kmh 30.04 in1017.3 mb 0.00 in0.0 mm 0.00 in0.0 mm 0.14 in3.6 mm
04:50 AM 52.3°F11.3°C 56.0°F13.3°C 86% 0.8 mph NNW1.3 kmh NNW 0.8 mph1.3 kmh 30.04 in1017.3 mb 0.00 in0.0 mm 0.00 in0.0 mm 0.14 in3.6 mm
04:53 AM 52.3°F11.3°C 55.7°F13.2°C 86% Calm Calm -- 30.04 in1017.3 mb 0.00 in0.0 mm 0.00 in0.0 mm 0.14 in3.6 mm
04:56 AM 52.3°F11.3°C 55.9°F13.3°C 86% 0.8 mph NW1.3 kmh NW 0.8 mph1.3 kmh 30.05 in1017.6 mb 0.00 in0.0 mm 0.00 in0.0 mm 0.14 in3.6 mm
04:59 AM 52.3°F11.3°C 56.0°F13.3°C 86% Calm Calm -- 30.05 in1017.6 mb 0.00 in0.0 mm 0.00 in0.0 mm 0.14 in3.6 mm
05:02 AM 52.3°F11.3°C 55.6°F13.1°C 86% 1.2 mph W1.9 kmh W 1.2 mph1.9 kmh 30.05 in1017.6 mb 0.00 in0.0 mm 0.00 in0.0 mm 0.14 in3.6 mm
05:05 AM 52.3°F11.3°C 55.7°F13.2°C 86% 0.8 mph NW1.3 kmh NW 0.8 mph1.3 kmh 30.06 in1017.9 mb 0.00 in0.0 mm 0.00 in0.0 mm 0.14 in3.6 mm
05:08 AM 52.3°F11.3°C 55.9°F13.3°C 86% 2.0 mph NW3.2 kmh NW 2.0 mph3.2 kmh 30.05 in1017.6 mb 0.00 in0.0 mm 0.00 in0.0 mm 0.14 in3.6 mm
05:11 AM 52.1°F11.2°C 55.7°F13.2°C 86% 0.8 mph NNW1.3 kmh NNW 0.8 mph1.3 kmh 30.05 in1017.6 mb 0.00 in0.0 mm 0.00 in0.0 mm 0.14 in3.6 mm
05:14 AM 52.1°F11.2°C 55.6°F13.1°C 86% 1.2 mph NW1.9 kmh NW 1.2 mph1.9 kmh 30.05 in1017.6 mb 0.00 in0.0 mm 0.00 in0.0 mm 0.14 in3.6 mm
05:17 AM 52.0°F11.1°C 55.6°F13.1°C 86% 1.6 mph NNW2.6 kmh NNW 1.6 mph2.6 kmh 30.06 in1017.9 mb 0.00 in0.0 mm 0.00 in0.0 mm 0.14 in3.6 mm
05:20 AM 52.0°F11.1°C 55.5°F13.1°C 86% Calm Calm -- 30.06 in1017.9 mb 0.00 in0.0 mm 0.00 in0.0 mm 0.14 in3.6 mm
05:23 AM 52.0°F11.1°C 55.4°F13.0°C 85% 0.8 mph NNW1.3 kmh NNW 0.8 mph1.3 kmh 30.06 in1017.9 mb 0.00 in0.0 mm 0.00 in0.0 mm 0.14 in3.6 mm
05:26 AM 52.0°F11.1°C 55.5°F13.1°C 86% Calm Calm -- 30.06 in1017.9 mb 0.00 in0.0 mm 0.00 in0.0 mm 0.14 in3.6 mm
05:29 AM 52.0°F11.1°C 55.4°F13.0°C 86% Calm Calm -- 30.06 in1017.9 mb 0.00 in0.0 mm 0.00 in0.0 mm 0.14 in3.6 mm
05:32 AM 52.0°F11.1°C 55.3°F12.9°C 86% Calm Calm -- 30.06 in1017.9 mb 0.00 in0.0 mm 0.00 in0.0 mm 0.14 in3.6 mm
05:35 AM 52.1°F11.2°C 55.7°F13.2°C 86% Calm Calm -- 30.06 in1017.9 mb 0.00 in0.0 mm 0.00 in0.0 mm 0.14 in3.6 mm
05:38 AM 52.0°F11.1°C 55.6°F13.1°C 86% 0.4 mph WNW0.6 kmh WNW 0.4 mph0.6 kmh 30.06 in1017.9 mb 0.00 in0.0 mm 0.00 in0.0 mm 0.14 in3.6 mm
05:41 AM 52.0°F11.1°C 55.6°F13.1°C 86% Calm Calm -- 30.06 in1017.9 mb 0.00 in0.0 mm 0.00 in0.0 mm 0.14 in3.6 mm
05:44 AM 52.0°F11.1°C 55.6°F13.1°C 86% Calm Calm -- 30.06 in1017.9 mb 0.00 in0.0 mm 0.00 in0.0 mm 0.14 in3.6 mm
05:47 AM 51.9°F11.1°C 55.5°F13.1°C 86% 1.6 mph NW2.6 kmh NW 1.6 mph2.6 kmh 30.06 in1017.9 mb 0.00 in0.0 mm 0.00 in0.0 mm 0.16 in4.1 mm
05:50 AM 51.8°F11.0°C 55.5°F13.1°C 86% 1.2 mph NW1.9 kmh NW 1.2 mph1.9 kmh 30.06 in1017.9 mb 0.00 in0.0 mm 0.00 in0.0 mm 0.16 in4.1 mm
05:53 AM 51.9°F11.1°C 55.3°F12.9°C 86% 2.4 mph NW3.9 kmh NW 2.4 mph3.9 kmh 30.06 in1017.9 mb 0.00 in0.0 mm 0.00 in0.0 mm 0.16 in4.1 mm
05:56 AM 51.9°F11.1°C 55.5°F13.1°C 87% 2.0 mph NNW3.2 kmh NNW 2.0 mph3.2 kmh 30.06 in1017.9 mb 0.00 in0.0 mm 0.00 in0.0 mm 0.16 in4.1 mm
05:59 AM 51.8°F11.0°C 55.0°F12.8°C 86% 3.4 mph NNW5.5 kmh NNW 3.5 mph5.6 kmh 30.06 in1017.9 mb 0.00 in0.0 mm 0.00 in0.0 mm 0.16 in4.1 mm
06:02 AM 51.8°F11.0°C 54.7°F12.6°C 85% 1.6 mph 2.6 kmh 1.6 mph2.6 kmh 30.06 in1017.9 mb 0.00 in0.0 mm 0.00 in0.0 mm 0.16 in4.1 mm
06:05 AM 51.8°F11.0°C 54.8°F12.7°C 85% 2.4 mph NE3.9 kmh NE 2.4 mph3.9 kmh 30.06 in1017.9 mb 0.00 in0.0 mm 0.00 in0.0 mm 0.16 in4.1 mm
06:08 AM 51.7°F10.9°C 54.7°F12.6°C 85% 0.8 mph 1.3 kmh 0.8 mph1.3 kmh 30.06 in1017.9 mb 0.00 in0.0 mm 0.00 in0.0 mm 0.16 in4.1 mm
06:11 AM 51.7°F10.9°C 54.4°F12.4°C 84% Calm Calm -- 30.07 in1018.3 mb 0.00 in0.0 mm 0.00 in0.0 mm 0.16 in4.1 mm
06:14 AM 51.4°F10.8°C 54.8°F12.7°C 85% Calm Calm -- 30.06 in1017.9 mb 0.00 in0.0 mm 0.00 in0.0 mm 0.16 in4.1 mm
06:17 AM 51.4°F10.8°C 54.7°F12.6°C 85% Calm Calm -- 30.06 in1017.9 mb 0.00 in0.0 mm 0.00 in0.0 mm 0.16 in4.1 mm
06:20 AM 51.4°F10.8°C 54.6°F12.6°C 85% Calm Calm -- 30.06 in1017.9 mb 0.00 in0.0 mm 0.00 in0.0 mm 0.16 in4.1 mm
06:23 AM 51.5°F10.8°C 55.0°F12.8°C 85% Calm Calm -- 30.06 in1017.9 mb 0.00 in0.0 mm 0.00 in0.0 mm 0.16 in4.1 mm
06:26 AM 51.4°F10.8°C 54.9°F12.7°C 85% Calm Calm -- 30.06 in1017.9 mb 0.00 in0.0 mm 0.00 in0.0 mm 0.16 in4.1 mm
06:29 AM 51.2°F10.7°C 55.0°F12.8°C 86% Calm Calm -- 30.06 in1017.9 mb 0.00 in0.0 mm 0.00 in0.0 mm 0.16 in4.1 mm
06:32 AM 51.4°F10.8°C 54.8°F12.7°C 86% Calm Calm -- 30.06 in1017.9 mb 0.00 in0.0 mm 0.00 in0.0 mm 0.16 in4.1 mm
06:35 AM 51.4°F10.8°C 55.0°F12.8°C 86% Calm Calm -- 30.07 in1018.3 mb 0.00 in0.0 mm 0.00 in0.0 mm 0.16 in4.1 mm
06:38 AM 51.4°F10.8°C 54.8°F12.7°C 86% Calm Calm -- 30.07 in1018.3 mb 0.00 in0.0 mm 0.00 in0.0 mm 0.16 in4.1 mm
06:41 AM 51.2°F10.7°C 54.8°F12.7°C 86% Calm Calm -- 30.07 in1018.3 mb 0.00 in0.0 mm 0.00 in0.0 mm 0.16 in4.1 mm
06:44 AM 51.5°F10.8°C 54.6°F12.6°C 85% Calm Calm -- 30.07 in1018.3 mb 0.00 in0.0 mm 0.00 in0.0 mm 0.16 in4.1 mm
06:47 AM 51.5°F10.8°C 54.7°F12.6°C 86% Calm Calm -- 30.07 in1018.3 mb 0.00 in0.0 mm 0.00 in0.0 mm 0.16 in4.1 mm
06:50 AM 51.4°F10.8°C 54.6°F12.6°C 86% Calm Calm -- 30.08 in1018.6 mb 0.00 in0.0 mm 0.00 in0.0 mm 0.16 in4.1 mm
06:53 AM 51.5°F10.8°C 54.9°F12.7°C 86% Calm Calm -- 30.08 in1018.6 mb 0.00 in0.0 mm 0.00 in0.0 mm 0.16 in4.1 mm
06:56 AM 51.5°F10.8°C 54.7°F12.6°C 86% Calm Calm -- 30.08 in1018.6 mb 0.00 in0.0 mm 0.00 in0.0 mm 0.16 in4.1 mm
06:59 AM 51.4°F10.8°C 54.9°F12.7°C 86% Calm Calm -- 30.07 in1018.3 mb 0.00 in0.0 mm 0.00 in0.0 mm 0.16 in4.1 mm
07:02 AM 51.4°F10.8°C 54.9°F12.7°C 86% Calm Calm -- 30.08 in1018.6 mb 0.00 in0.0 mm 0.00 in0.0 mm 0.16 in4.1 mm
07:05 AM 51.4°F10.8°C 54.9°F12.7°C 86% Calm Calm -- 30.08 in1018.6 mb 0.00 in0.0 mm 0.00 in0.0 mm 0.16 in4.1 mm
07:08 AM 51.5°F10.8°C 55.1°F12.8°C 86% Calm Calm -- 30.08 in1018.6 mb 0.00 in0.0 mm 0.00 in0.0 mm 0.16 in4.1 mm
07:11 AM 51.5°F10.8°C 54.8°F12.7°C 86% Calm Calm -- 30.08 in1018.6 mb 0.00 in0.0 mm 0.00 in0.0 mm 0.16 in4.1 mm
07:14 AM 51.4°F10.8°C 54.8°F12.7°C 87% Calm Calm -- 30.08 in1018.6 mb 0.00 in0.0 mm 0.00 in0.0 mm 0.16 in4.1 mm
07:17 AM 51.5°F10.8°C 54.8°F12.7°C 86% Calm Calm -- 30.08 in1018.6 mb 0.00 in0.0 mm 0.00 in0.0 mm 0.16 in4.1 mm
07:20 AM 51.7°F10.9°C 54.9°F12.7°C 86% Calm Calm -- 30.08 in1018.6 mb 0.00 in0.0 mm 0.00 in0.0 mm 0.16 in4.1 mm
07:23 AM 51.8°F11.0°C 55.3°F12.9°C 87% Calm Calm -- 30.08 in1018.6 mb 0.00 in0.0 mm 0.00 in0.0 mm 0.16 in4.1 mm
07:26 AM 51.8°F11.0°C 55.0°F12.8°C 87% Calm Calm -- 30.08 in1018.6 mb 0.00 in0.0 mm 0.00 in0.0 mm 0.16 in4.1 mm
07:29 AM 51.9°F11.1°C 55.0°F12.8°C 87% Calm Calm -- 30.08 in1018.6 mb 0.00 in0.0 mm 0.00 in0.0 mm 0.16 in4.1 mm
07:32 AM 52.0°F11.1°C 55.1°F12.8°C 87% Calm Calm -- 30.08 in1018.6 mb 0.00 in0.0 mm 0.00 in0.0 mm 0.16 in4.1 mm
07:35 AM 52.1°F11.2°C 55.1°F12.8°C 87% Calm Calm -- 30.09 in1019.0 mb 0.00 in0.0 mm 0.00 in0.0 mm 0.16 in4.1 mm
07:38 AM 52.3°F11.3°C 55.0°F12.8°C 87% Calm Calm -- 30.08 in1018.6 mb 0.00 in0.0 mm 0.00 in0.0 mm 0.16 in4.1 mm
07:41 AM 52.7°F11.5°C 55.4°F13.0°C 87% Calm Calm -- 30.08 in1018.6 mb 0.00 in0.0 mm 0.00 in0.0 mm 0.16 in4.1 mm
07:44 AM 52.6°F11.4°C 54.9°F12.7°C 86% Calm Calm -- 30.09 in1019.0 mb 0.00 in0.0 mm 0.00 in0.0 mm 0.16 in4.1 mm
07:47 AM 52.8°F11.6°C 55.3°F12.9°C 87% Calm Calm -- 30.10 in1019.3 mb 0.00 in0.0 mm 0.00 in0.0 mm 0.16 in4.1 mm
07:50 AM 53.0°F11.7°C 55.4°F13.0°C 87% Calm Calm -- 30.09 in1019.0 mb 0.00 in0.0 mm 0.00 in0.0 mm 0.16 in4.1 mm
07:53 AM 53.2°F11.8°C 55.6°F13.1°C 87% Calm Calm -- 30.10 in1019.3 mb 0.00 in0.0 mm 0.00 in0.0 mm 0.16 in4.1 mm
07:56 AM 53.0°F11.7°C 55.6°F13.1°C 87% 0.4 mph WNW0.6 kmh WNW 0.4 mph0.6 kmh 30.10 in1019.3 mb 0.00 in0.0 mm 0.00 in0.0 mm 0.16 in4.1 mm
07:59 AM 52.8°F11.6°C 55.4°F13.0°C 87% Calm Calm -- 30.10 in1019.3 mb 0.00 in0.0 mm 0.00 in0.0 mm 0.16 in4.1 mm
08:02 AM 52.7°F11.5°C 55.1°F12.8°C 86% 1.6 mph NE2.6 kmh NE 1.6 mph2.6 kmh 30.10 in1019.3 mb 0.00 in0.0 mm 0.00 in0.0 mm 0.16 in4.1 mm
08:05 AM 52.8°F11.6°C 55.3°F12.9°C 86% 0.8 mph NNW1.3 kmh NNW 0.8 mph1.3 kmh 30.10 in1019.3 mb 0.00 in0.0 mm 0.00 in0.0 mm 0.16 in4.1 mm
08:08 AM 52.9°F11.6°C 55.5°F13.1°C 87% Calm Calm -- 30.10 in1019.3 mb 0.00 in0.0 mm 0.00 in0.0 mm 0.16 in4.1 mm
08:11 AM 53.2°F11.8°C 55.3°F12.9°C 86% Calm Calm -- 30.10 in1019.3 mb 0.00 in0.0 mm 0.00 in0.0 mm 0.16 in4.1 mm
08:14 AM 52.9°F11.6°C 55.6°F13.1°C 87% 1.6 mph NW2.6 kmh NW 1.6 mph2.6 kmh 30.10 in1019.3 mb 0.00 in0.0 mm 0.00 in0.0 mm 0.16 in4.1 mm
08:17 AM 52.9°F11.6°C 55.6°F13.1°C 87% 0.8 mph W1.3 kmh W 0.8 mph1.3 kmh 30.10 in1019.3 mb 0.00 in0.0 mm 0.00 in0.0 mm 0.16 in4.1 mm
08:20 AM 53.2°F11.8°C 55.6°F13.1°C 87% 0.4 mph NW0.6 kmh NW 0.4 mph0.6 kmh 30.10 in1019.3 mb 0.00 in0.0 mm 0.00 in0.0 mm 0.16 in4.1 mm
08:23 AM 53.2°F11.8°C 55.6°F13.1°C 87% 2.0 mph WNW3.2 kmh WNW 2.0 mph3.2 kmh 30.10 in1019.3 mb 0.00 in0.0 mm 0.00 in0.0 mm 0.16 in4.1 mm
08:26 AM 53.2°F11.8°C 55.3°F12.9°C 86% Calm Calm -- 30.10 in1019.3 mb 0.00 in0.0 mm 0.00 in0.0 mm 0.16 in4.1 mm
08:29 AM 53.5°F11.9°C 55.7°F13.2°C 87% Calm Calm -- 30.10 in1019.3 mb 0.00 in0.0 mm 0.00 in0.0 mm 0.16 in4.1 mm
08:32 AM 53.6°F12.0°C 55.8°F13.2°C 87% 1.6 mph NNW2.6 kmh NNW 1.6 mph2.6 kmh 30.10 in1019.3 mb 0.00 in0.0 mm 0.00 in0.0 mm 0.16 in4.1 mm
08:35 AM 53.6°F12.0°C 55.7°F13.2°C 86% Calm Calm -- 30.10 in1019.3 mb 0.00 in0.0 mm 0.00 in0.0 mm 0.16 in4.1 mm
08:38 AM 53.6°F12.0°C 55.7°F13.2°C 87% 1.5 mph NW2.4 kmh NW 1.6 mph2.6 kmh 30.10 in1019.3 mb 0.00 in0.0 mm 0.00 in0.0 mm 0.16 in4.1 mm
08:41 AM 53.7°F12.1°C 55.6°F13.1°C 86% 0.4 mph 0.6 kmh 0.4 mph0.6 kmh 30.10 in1019.3 mb 0.00 in0.0 mm 0.00 in0.0 mm 0.16 in4.1 mm
08:44 AM 53.8°F12.1°C 55.6°F13.1°C 86% 0.4 mph NW0.6 kmh NW 0.4 mph0.6 kmh 30.10 in1019.3 mb 0.00 in0.0 mm 0.00 in0.0 mm 0.16 in4.1 mm
08:47 AM 54.1°F12.3°C 56.0°F13.3°C 86% Calm Calm -- 30.10 in1019.3 mb 0.00 in0.0 mm 0.00 in0.0 mm 0.16 in4.1 mm
08:50 AM 54.3°F12.4°C 56.0°F13.3°C 87% Calm Calm -- 30.11 in1019.6 mb 0.00 in0.0 mm 0.00 in0.0 mm 0.16 in4.1 mm
08:53 AM 54.3°F12.4°C 56.1°F13.4°C 86% Calm Calm -- 30.11 in1019.6 mb 0.00 in0.0 mm 0.00 in0.0 mm 0.16 in4.1 mm
08:56 AM 54.2°F12.3°C 56.1°F13.4°C 86% Calm Calm -- 30.11 in1019.6 mb 0.00 in0.0 mm 0.00 in0.0 mm 0.16 in4.1 mm
08:59 AM 53.9°F12.2°C 56.0°F13.3°C 86% Calm Calm -- 30.11 in1019.6 mb 0.00 in0.0 mm 0.00 in0.0 mm 0.16 in4.1 mm
09:02 AM 53.9°F12.2°C 56.0°F13.3°C 86% 1.2 mph W1.9 kmh W 1.2 mph1.9 kmh 30.11 in1019.6 mb 0.00 in0.0 mm 0.00 in0.0 mm 0.16 in4.1 mm
09:05 AM 54.5°F12.5°C 56.0°F13.3°C 86% 0.8 mph W1.3 kmh W 0.8 mph1.3 kmh 30.11 in1019.6 mb 0.00 in0.0 mm 0.00 in0.0 mm 0.16 in4.1 mm
09:08 AM 54.4°F12.4°C 55.9°F13.3°C 86% Calm Calm -- 30.11 in1019.6 mb 0.00 in0.0 mm 0.00 in0.0 mm 0.16 in4.1 mm
09:11 AM 54.7°F12.6°C 55.7°F13.2°C 86% Calm Calm -- 30.11 in1019.6 mb 0.00 in0.0 mm 0.00 in0.0 mm 0.16 in4.1 mm
09:14 AM 54.6°F12.6°C 55.9°F13.3°C 86% Calm Calm -- 30.11 in1019.6 mb 0.00 in0.0 mm 0.00 in0.0 mm 0.16 in4.1 mm
09:17 AM 54.5°F12.5°C 56.0°F13.3°C 86% 0.8 mph NNW1.3 kmh NNW 0.8 mph1.3 kmh 30.11 in1019.6 mb 0.00 in0.0 mm 0.00 in0.0 mm 0.16 in4.1 mm
09:20 AM 54.7°F12.6°C 55.6°F13.1°C 85% Calm Calm -- 30.11 in1019.6 mb 0.00 in0.0 mm 0.00 in0.0 mm 0.16 in4.1 mm
09:23 AM 54.7°F12.6°C 55.9°F13.3°C 85% 1.2 mph WNW1.9 kmh WNW 1.2 mph1.9 kmh 30.11 in1019.6 mb 0.00 in0.0 mm 0.00 in0.0 mm 0.16 in4.1 mm
09:26 AM 54.5°F12.5°C 55.7°F13.2°C 85% Calm Calm -- 30.11 in1019.6 mb 0.00 in0.0 mm 0.00 in0.0 mm 0.16 in4.1 mm
09:29 AM 54.3°F12.4°C 55.9°F13.3°C 85% Calm Calm -- 30.11 in1019.6 mb 0.00 in0.0 mm 0.00 in0.0 mm 0.16 in4.1 mm
09:32 AM 54.5°F12.5°C 55.9°F13.3°C 85% Calm Calm -- 30.12 in1020.0 mb 0.00 in0.0 mm 0.00 in0.0 mm 0.16 in4.1 mm
09:35 AM 54.4°F12.4°C 55.7°F13.2°C 84% 2.4 mph NNW3.9 kmh NNW 2.4 mph3.9 kmh 30.12 in1020.0 mb 0.00 in0.0 mm 0.00 in0.0 mm 0.16 in4.1 mm
09:38 AM 53.8°F12.1°C 55.5°F13.1°C 84% 3.6 mph 5.8 kmh 3.6 mph5.8 kmh 30.12 in1020.0 mb 0.00 in0.0 mm 0.00 in0.0 mm 0.16 in4.1 mm
09:41 AM 54.1°F12.3°C 55.4°F13.0°C 84% 1.2 mph NE1.9 kmh NE 1.2 mph1.9 kmh 30.11 in1019.6 mb 0.00 in0.0 mm 0.00 in0.0 mm 0.16 in4.1 mm
09:44 AM 54.4°F12.4°C 55.7°F13.2°C 85% Calm Calm -- 30.12 in1020.0 mb 0.00 in0.0 mm 0.00 in0.0 mm 0.16 in4.1 mm
09:47 AM 54.8°F12.7°C 55.7°F13.2°C 84% Calm Calm -- 30.12 in1020.0 mb 0.00 in0.0 mm 0.00 in0.0 mm 0.16 in4.1 mm
09:50 AM 55.1°F12.8°C 55.9°F13.3°C 85% Calm Calm -- 30.12 in1020.0 mb 0.00 in0.0 mm 0.00 in0.0 mm 0.16 in4.1 mm
09:53 AM 55.6°F13.1°C 56.3°F13.5°C 85% 0.8 mph NNW1.3 kmh NNW 0.8 mph1.3 kmh 30.12 in1020.0 mb 0.00 in0.0 mm 0.00 in0.0 mm 0.16 in4.1 mm
09:56 AM 56.3°F13.5°C 56.3°F13.5°C 85% Calm Calm -- 30.12 in1020.0 mb 0.00 in0.0 mm 0.00 in0.0 mm 0.16 in4.1 mm
09:59 AM 56.8°F13.8°C 56.6°F13.7°C 85% Calm Calm -- 30.12 in1020.0 mb 0.00 in0.0 mm 0.00 in0.0 mm 0.16 in4.1 mm
10:02 AM 56.6°F13.7°C 56.3°F13.5°C 84% Calm Calm -- 30.12 in1020.0 mb 0.00 in0.0 mm 0.00 in0.0 mm 0.16 in4.1 mm
10:05 AM 57.5°F14.2°C 56.4°F13.6°C 84% Calm Calm -- 30.12 in1020.0 mb 0.00 in0.0 mm 0.00 in0.0 mm 0.16 in4.1 mm
10:08 AM 57.3°F14.1°C 56.4°F13.6°C 84% Calm Calm -- 30.12 in1020.0 mb 0.00 in0.0 mm 0.00 in0.0 mm 0.16 in4.1 mm
10:11 AM 56.9°F13.8°C 56.1°F13.4°C 82% Calm Calm -- 30.12 in1020.0 mb 0.00 in0.0 mm 0.00 in0.0 mm 0.16 in4.1 mm
10:14 AM 57.2°F14.0°C 56.1°F13.4°C 83% Calm Calm -- 30.12 in1020.0 mb 0.00 in0.0 mm 0.00 in0.0 mm 0.16 in4.1 mm
10:17 AM 57.0°F13.9°C 56.2°F13.4°C 83% 0.4 mph NNW0.6 kmh NNW 0.4 mph0.6 kmh 30.12 in1020.0 mb 0.00 in0.0 mm 0.00 in0.0 mm 0.16 in4.1 mm
10:20 AM 57.1°F13.9°C 56.3°F13.5°C 83% Calm Calm -- 30.12 in1020.0 mb 0.00 in0.0 mm 0.00 in0.0 mm 0.16 in4.1 mm
10:23 AM 56.9°F13.8°C 56.3°F13.5°C 83% Calm Calm -- 30.12 in1020.0 mb 0.00 in0.0 mm 0.00 in0.0 mm 0.16 in4.1 mm
10:26 AM 57.0°F13.9°C 56.3°F13.5°C 82% Calm Calm -- 30.12 in1020.0 mb 0.00 in0.0 mm 0.00 in0.0 mm 0.16 in4.1 mm
10:29 AM 57.5°F14.2°C 57.0°F13.9°C 83% Calm Calm -- 30.12 in1020.0 mb 0.00 in0.0 mm 0.00 in0.0 mm 0.16 in4.1 mm
10:32 AM 57.2°F14.0°C 56.6°F13.7°C 82% 1.2 mph WSW1.9 kmh WSW 1.2 mph1.9 kmh 30.12 in1020.0 mb 0.00 in0.0 mm 0.00 in0.0 mm 0.16 in4.1 mm
10:35 AM 57.1°F13.9°C 56.2°F13.4°C 81% 1.2 mph NNW1.9 kmh NNW 1.2 mph1.9 kmh 30.12 in1020.0 mb 0.00 in0.0 mm 0.00 in0.0 mm 0.16 in4.1 mm
10:38 AM 56.8°F13.8°C 56.6°F13.7°C 82% Calm Calm -- 30.12 in1020.0 mb 0.00 in0.0 mm 0.00 in0.0 mm 0.16 in4.1 mm
10:41 AM 56.5°F13.6°C 56.5°F13.6°C 81% 0.4 mph NNW0.6 kmh NNW 0.4 mph0.6 kmh 30.12 in1020.0 mb 0.00 in0.0 mm 0.00 in0.0 mm 0.16 in4.1 mm
10:44 AM 56.6°F13.7°C 56.5°F13.6°C 81% 0.4 mph S0.6 kmh S 0.4 mph0.6 kmh 30.12 in1020.0 mb 0.00 in0.0 mm 0.00 in0.0 mm 0.16 in4.1 mm
10:47 AM 56.5°F13.6°C 56.1°F13.4°C 80% Calm Calm -- 30.12 in1020.0 mb 0.00 in0.0 mm 0.00 in0.0 mm 0.16 in4.1 mm
10:50 AM 56.6°F13.7°C 56.0°F13.3°C 80% Calm Calm -- 30.12 in1020.0 mb 0.00 in0.0 mm 0.00 in0.0 mm 0.16 in4.1 mm
10:56 AM 56.1°F13.4°C 55.7°F13.2°C 79% Calm Calm -- 30.12 in1020.0 mb 0.00 in0.0 mm 0.00 in0.0 mm 0.16 in4.1 mm
10:59 AM 56.2°F13.4°C 56.0°F13.3°C 79% Calm Calm -- 30.12 in1020.0 mb 0.00 in0.0 mm 0.00 in0.0 mm 0.16 in4.1 mm
11:02 AM 56.2°F13.4°C 56.2°F13.4°C 80% Calm Calm -- 30.12 in1020.0 mb 0.00 in0.0 mm 0.00 in0.0 mm 0.16 in4.1 mm
11:05 AM 56.2°F13.4°C 55.9°F13.3°C 79% Calm Calm -- 30.12 in1020.0 mb 0.00 in0.0 mm 0.00 in0.0 mm 0.16 in4.1 mm
11:08 AM 55.9°F13.3°C 56.1°F13.4°C 79% Calm Calm -- 30.12 in1020.0 mb 0.00 in0.0 mm 0.00 in0.0 mm 0.16 in4.1 mm
11:11 AM 55.9°F13.3°C 56.2°F13.4°C 79% 0.8 mph SSW1.3 kmh SSW 0.8 mph1.3 kmh 30.12 in1020.0 mb 0.00 in0.0 mm 0.00 in0.0 mm 0.16 in4.1 mm
11:14 AM 55.6°F13.1°C 56.1°F13.4°C 79% Calm Calm -- 30.13 in1020.3 mb 0.00 in0.0 mm 0.00 in0.0 mm 0.16 in4.1 mm
11:17 AM 55.5°F13.1°C 56.0°F13.3°C 79% 1.6 mph WSW2.6 kmh WSW 1.6 mph2.6 kmh 30.12 in1020.0 mb 0.00 in0.0 mm 0.00 in0.0 mm 0.16 in4.1 mm
11:20 AM 55.7°F13.2°C 55.9°F13.3°C 79% 1.1 mph SW1.8 kmh SW 1.2 mph1.9 kmh 30.13 in1020.3 mb 0.00 in0.0 mm 0.00 in0.0 mm 0.16 in4.1 mm
11:23 AM 55.5°F13.1°C 55.7°F13.2°C 78% Calm Calm -- 30.13 in1020.3 mb 0.00 in0.0 mm 0.00 in0.0 mm 0.16 in4.1 mm
11:26 AM 55.2°F12.9°C 55.9°F13.3°C 79% 0.8 mph SW1.3 kmh SW 0.8 mph1.3 kmh 30.13 in1020.3 mb 0.00 in0.0 mm 0.00 in0.0 mm 0.16 in4.1 mm
11:29 AM 55.1°F12.8°C 55.7°F13.2°C 79% Calm Calm -- 30.13 in1020.3 mb 0.00 in0.0 mm 0.00 in0.0 mm 0.16 in4.1 mm
11:32 AM 55.1°F12.8°C 55.9°F13.3°C 79% Calm Calm -- 30.13 in1020.3 mb 0.00 in0.0 mm 0.00 in0.0 mm 0.16 in4.1 mm
11:35 AM 55.1°F12.8°C 55.9°F13.3°C 79% Calm Calm -- 30.13 in1020.3 mb 0.00 in0.0 mm 0.00 in0.0 mm 0.16 in4.1 mm
11:38 AM 55.2°F12.9°C 56.2°F13.4°C 80% Calm Calm -- 30.13 in1020.3 mb 0.00 in0.0 mm 0.00 in0.0 mm 0.16 in4.1 mm
11:41 AM 55.4°F13.0°C 55.7°F13.2°C 79% 2.0 mph S3.2 kmh S 2.0 mph3.2 kmh 30.13 in1020.3 mb 0.00 in0.0 mm 0.00 in0.0 mm 0.16 in4.1 mm
11:44 AM 55.4°F13.0°C 56.0°F13.3°C 79% 0.8 mph SW1.3 kmh SW 0.8 mph1.3 kmh 30.12 in1020.0 mb 0.00 in0.0 mm 0.00 in0.0 mm 0.16 in4.1 mm
11:47 AM 55.7°F13.2°C 56.1°F13.4°C 79% 0.4 mph WSW0.6 kmh WSW 0.4 mph0.6 kmh 30.12 in1020.0 mb 0.00 in0.0 mm 0.00 in0.0 mm 0.16 in4.1 mm
11:50 AM 55.4°F13.0°C 56.1°F13.4°C 80% Calm Calm -- 30.12 in1020.0 mb 0.00 in0.0 mm 0.00 in0.0 mm 0.16 in4.1 mm
11:53 AM 55.4°F13.0°C 56.2°F13.4°C 80% Calm Calm -- 30.13 in1020.3 mb 0.00 in0.0 mm 0.00 in0.0 mm 0.16 in4.1 mm
11:56 AM 55.4°F13.0°C 55.9°F13.3°C 79% Calm Calm -- 30.13 in1020.3 mb 0.00 in0.0 mm 0.00 in0.0 mm 0.16 in4.1 mm
11:59 AM 55.6°F13.1°C 56.1°F13.4°C 80% Calm Calm -- 30.12 in1020.0 mb 0.00 in0.0 mm 0.00 in0.0 mm 0.16 in4.1 mm
12:02 PM 56.2°F13.4°C 56.2°F13.4°C 80% Calm Calm -- 30.13 in1020.3 mb 0.00 in0.0 mm 0.00 in0.0 mm 0.16 in4.1 mm
12:05 PM 56.9°F13.8°C 56.6°F13.7°C 81% Calm Calm -- 30.13 in1020.3 mb 0.00 in0.0 mm 0.00 in0.0 mm 0.16 in4.1 mm
12:08 PM 56.9°F13.8°C 56.7°F13.7°C 81% Calm Calm -- 30.13 in1020.3 mb 0.00 in0.0 mm 0.00 in0.0 mm 0.16 in4.1 mm
12:11 PM 56.5°F13.6°C 56.5°F13.6°C 81% 1.2 mph SW1.9 kmh SW 1.2 mph1.9 kmh 30.13 in1020.3 mb 0.00 in0.0 mm 0.00 in0.0 mm 0.16 in4.1 mm
12:14 PM 56.9°F13.8°C 56.5°F13.6°C 80% 0.4 mph SSE0.6 kmh SSE 0.4 mph0.6 kmh 30.13 in1020.3 mb 0.00 in0.0 mm 0.00 in0.0 mm 0.16 in4.1 mm
12:17 PM 57.7°F14.3°C 56.5°F13.6°C 80% 0.4 mph SE0.6 kmh SE 0.4 mph0.6 kmh 30.12 in1020.0 mb 0.00 in0.0 mm 0.00 in0.0 mm 0.16 in4.1 mm
12:20 PM 58.0°F14.4°C 56.6°F13.7°C 81% Calm Calm -- 30.12 in1020.0 mb 0.00 in0.0 mm 0.00 in0.0 mm 0.16 in4.1 mm
12:23 PM 58.1°F14.5°C 56.7°F13.7°C 80% 0.8 mph SE1.3 kmh SE 0.8 mph1.3 kmh 30.12 in1020.0 mb 0.00 in0.0 mm 0.00 in0.0 mm 0.16 in4.1 mm
12:26 PM 58.0°F14.4°C 56.7°F13.7°C 80% Calm Calm -- 30.12 in1020.0 mb 0.00 in0.0 mm 0.00 in0.0 mm 0.16 in4.1 mm
12:29 PM 58.4°F14.7°C 56.3°F13.5°C 79% Calm Calm -- 30.12 in1020.0 mb 0.00 in0.0 mm 0.00 in0.0 mm 0.16 in4.1 mm
12:32 PM 58.3°F14.6°C 56.6°F13.7°C 79% Calm Calm -- 30.12 in1020.0 mb 0.00 in0.0 mm 0.00 in0.0 mm 0.16 in4.1 mm
12:35 PM 58.8°F14.9°C 56.4°F13.6°C 79% Calm Calm -- 30.12 in1020.0 mb 0.00 in0.0 mm 0.00 in0.0 mm 0.16 in4.1 mm
12:38 PM 59.2°F15.1°C 56.6°F13.7°C 78% 0.4 mph NNW0.6 kmh NNW 0.4 mph0.6 kmh 30.12 in1020.0 mb 0.00 in0.0 mm 0.00 in0.0 mm 0.16 in4.1 mm
12:44 PM 60.1°F15.6°C 57.1°F13.9°C 79% Calm Calm -- 30.11 in1019.6 mb 0.00 in0.0 mm 0.00 in0.0 mm 0.16 in4.1 mm
12:47 PM 59.7°F15.4°C 57.6°F14.2°C 80% Calm Calm -- 30.11 in1019.6 mb 0.00 in0.0 mm 0.00 in0.0 mm 0.16 in4.1 mm
12:50 PM 59.9°F15.5°C 56.8°F13.8°C 78% Calm Calm -- 30.11 in1019.6 mb 0.00 in0.0 mm 0.00 in0.0 mm 0.16 in4.1 mm
12:53 PM 59.5°F15.3°C 56.8°F13.8°C 77% Calm Calm -- 30.12 in1020.0 mb 0.00 in0.0 mm 0.00 in0.0 mm 0.16 in4.1 mm
12:56 PM 58.1°F14.5°C 56.2°F13.4°C 76% Calm Calm -- 30.12 in1020.0 mb 0.00 in0.0 mm 0.00 in0.0 mm 0.16 in4.1 mm
12:59 PM 57.9°F14.4°C 56.7°F13.7°C 78% Calm Calm -- 30.12 in1020.0 mb 0.00 in0.0 mm 0.00 in0.0 mm 0.16 in4.1 mm
01:02 PM 58.1°F14.5°C 57.0°F13.9°C 78% Calm Calm -- 30.11 in1019.6 mb 0.00 in0.0 mm 0.00 in0.0 mm 0.16 in4.1 mm
01:05 PM 58.0°F14.4°C 56.3°F13.5°C 77% 0.8 mph SSE1.3 kmh SSE 0.8 mph1.3 kmh 30.12 in1020.0 mb 0.00 in0.0 mm 0.00 in0.0 mm 0.16 in4.1 mm
01:08 PM 58.1°F14.5°C 56.5°F13.6°C 78% Calm Calm -- 30.12 in1020.0 mb 0.00 in0.0 mm 0.00 in0.0 mm 0.16 in4.1 mm
01:11 PM 57.9°F14.4°C 56.8°F13.8°C 78% 0.8 mph SSE1.3 kmh SSE 0.8 mph1.3 kmh 30.11 in1019.6 mb 0.00 in0.0 mm 0.00 in0.0 mm 0.16 in4.1 mm
01:14 PM 58.4°F14.7°C 57.0°F13.9°C 79% 0.4 mph SSE0.6 kmh SSE 0.4 mph0.6 kmh 30.12 in1020.0 mb 0.00 in0.0 mm 0.00 in0.0 mm 0.16 in4.1 mm
01:17 PM 58.6°F14.8°C 56.9°F13.8°C 79% Calm Calm -- 30.12 in1020.0 mb 0.00 in0.0 mm 0.00 in0.0 mm 0.16 in4.1 mm
01:20 PM 58.2°F14.6°C 57.0°F13.9°C 79% 0.8 mph S1.3 kmh S 0.8 mph1.3 kmh 30.12 in1020.0 mb 0.00 in0.0 mm 0.00 in0.0 mm 0.16 in4.1 mm
01:23 PM 58.3°F14.6°C 57.0°F13.9°C 79% 0.8 mph SSE1.3 kmh SSE 0.8 mph1.3 kmh 30.12 in1020.0 mb 0.00 in0.0 mm 0.00 in0.0 mm 0.16 in4.1 mm
01:26 PM 58.2°F14.6°C 57.0°F13.9°C 79% 0.4 mph SSW0.6 kmh SSW 0.4 mph0.6 kmh 30.12 in1020.0 mb 0.00 in0.0 mm 0.00 in0.0 mm 0.16 in4.1 mm
01:29 PM 58.4°F14.7°C 57.0°F13.9°C 78% Calm Calm -- 30.12 in1020.0 mb 0.00 in0.0 mm 0.00 in0.0 mm 0.16 in4.1 mm
01:35 PM 58.6°F14.8°C 57.0°F13.9°C 78% Calm Calm -- 30.12 in1020.0 mb 0.00 in0.0 mm 0.00 in0.0 mm 0.16 in4.1 mm
01:38 PM 58.3°F14.6°C 57.3°F14.1°C 79% 0.4 mph SE0.6 kmh SE 0.4 mph0.6 kmh 30.12 in1020.0 mb 0.00 in0.0 mm 0.00 in0.0 mm 0.16 in4.1 mm
01:41 PM 58.3°F14.6°C 56.7°F13.7°C 78% Calm Calm -- 30.12 in1020.0 mb 0.00 in0.0 mm 0.00 in0.0 mm 0.16 in4.1 mm
01:44 PM 58.7°F14.8°C 57.3°F14.1°C 79% 0.4 mph SE0.6 kmh SE 0.4 mph0.6 kmh 30.12 in1020.0 mb 0.00 in0.0 mm 0.00 in0.0 mm 0.16 in4.1 mm
01:47 PM 58.8°F14.9°C 57.2°F14.0°C 79% 0.8 mph SSE1.3 kmh SSE 0.8 mph1.3 kmh 30.11 in1019.6 mb 0.00 in0.0 mm 0.00 in0.0 mm 0.16 in4.1 mm
01:50 PM 58.7°F14.8°C 57.0°F13.9°C 78% Calm Calm -- 30.12 in1020.0 mb 0.00 in0.0 mm 0.00 in0.0 mm 0.16 in4.1 mm
01:53 PM 58.6°F14.8°C 57.4°F14.1°C 79% Calm Calm -- 30.12 in1020.0 mb 0.00 in0.0 mm 0.00 in0.0 mm 0.16 in4.1 mm
01:56 PM 57.9°F14.4°C 56.7°F13.7°C 78% Calm Calm -- 30.12 in1020.0 mb 0.00 in0.0 mm 0.00 in0.0 mm 0.16 in4.1 mm
01:59 PM 57.7°F14.3°C 56.8°F13.8°C 78% Calm Calm -- 30.12 in1020.0 mb 0.00 in0.0 mm 0.00 in0.0 mm 0.16 in4.1 mm
02:02 PM 57.3°F14.1°C 56.6°F13.7°C 78% 0.8 mph SE1.3 kmh SE 0.8 mph1.3 kmh 30.12 in1020.0 mb 0.00 in0.0 mm 0.00 in0.0 mm 0.16 in4.1 mm
02:05 PM 57.3°F14.1°C 56.9°F13.8°C 78% Calm Calm -- 30.12 in1020.0 mb 0.00 in0.0 mm 0.00 in0.0 mm 0.16 in4.1 mm
02:08 PM 57.2°F14.0°C 57.4°F14.1°C 79% 0.4 mph SSE0.6 kmh SSE 0.4 mph0.6 kmh 30.12 in1020.0 mb 0.00 in0.0 mm 0.00 in0.0 mm 0.16 in4.1 mm
02:11 PM 56.8°F13.8°C 56.8°F13.8°C 78% Calm Calm -- 30.12 in1020.0 mb 0.00 in0.0 mm 0.00 in0.0 mm 0.16 in4.1 mm
02:14 PM 56.6°F13.7°C 57.0°F13.9°C 79% Calm Calm -- 30.12 in1020.0 mb 0.00 in0.0 mm 0.00 in0.0 mm 0.16 in4.1 mm
02:17 PM 56.5°F13.6°C 57.2°F14.0°C 79% 0.8 mph SSW1.3 kmh SSW 0.8 mph1.3 kmh 30.13 in1020.3 mb 0.00 in0.0 mm 0.00 in0.0 mm 0.16 in4.1 mm
02:20 PM 56.4°F13.6°C 57.4°F14.1°C 79% Calm Calm -- 30.12 in1020.0 mb 0.00 in0.0 mm 0.00 in0.0 mm 0.16 in4.1 mm
02:23 PM 56.8°F13.8°C 57.1°F13.9°C 78% Calm Calm -- 30.13 in1020.3 mb 0.00 in0.0 mm 0.00 in0.0 mm 0.16 in4.1 mm
02:26 PM 56.9°F13.8°C 56.9°F13.8°C 78% Calm Calm -- 30.13 in1020.3 mb 0.00 in0.0 mm 0.00 in0.0 mm 0.16 in4.1 mm
02:32 PM 57.5°F14.2°C 57.1°F13.9°C 79% Calm Calm -- 30.13 in1020.3 mb 0.00 in0.0 mm 0.00 in0.0 mm 0.16 in4.1 mm
02:35 PM 58.1°F14.5°C 57.3°F14.1°C 79% Calm Calm -- 30.12 in1020.0 mb 0.00 in0.0 mm 0.00 in0.0 mm 0.16 in4.1 mm
02:38 PM 58.7°F14.8°C 57.2°F14.0°C 78% Calm Calm -- 30.12 in1020.0 mb 0.00 in0.0 mm 0.00 in0.0 mm 0.16 in4.1 mm
02:41 PM 58.9°F14.9°C 57.3°F14.1°C 78% Calm Calm -- 30.12 in1020.0 mb 0.00 in0.0 mm 0.00 in0.0 mm 0.16 in4.1 mm
02:44 PM 58.4°F14.7°C 57.3°F14.1°C 77% Calm Calm -- 30.12 in1020.0 mb 0.00 in0.0 mm 0.00 in0.0 mm 0.16 in4.1 mm
02:47 PM 58.3°F14.6°C 57.7°F14.3°C 78% 0.4 mph SW0.6 kmh SW 0.4 mph0.6 kmh 30.12 in1020.0 mb 0.00 in0.0 mm 0.00 in0.0 mm 0.16 in4.1 mm
02:50 PM 58.6°F14.8°C 57.6°F14.2°C 78% Calm Calm -- 30.13 in1020.3 mb 0.00 in0.0 mm 0.00 in0.0 mm 0.16 in4.1 mm
02:53 PM 58.2°F14.6°C 57.6°F14.2°C 78% 0.4 mph SSE0.6 kmh SSE 0.4 mph0.6 kmh 30.12 in1020.0 mb 0.00 in0.0 mm 0.00 in0.0 mm 0.16 in4.1 mm
02:56 PM 57.8°F14.3°C 57.5°F14.2°C 78% Calm Calm -- 30.13 in1020.3 mb 0.00 in0.0 mm 0.00 in0.0 mm 0.16 in4.1 mm
02:59 PM 58.1°F14.5°C 57.0°F13.9°C 77% Calm Calm -- 30.12 in1020.0 mb 0.00 in0.0 mm 0.00 in0.0 mm 0.16 in4.1 mm
03:02 PM 57.9°F14.4°C 57.4°F14.1°C 78% Calm Calm -- 30.12 in1020.0 mb 0.00 in0.0 mm 0.00 in0.0 mm 0.16 in4.1 mm
03:05 PM 57.8°F14.3°C 57.3°F14.1°C 77% Calm Calm -- 30.12 in1020.0 mb 0.00 in0.0 mm 0.00 in0.0 mm 0.16 in4.1 mm
03:08 PM 58.0°F14.4°C 57.1°F13.9°C 77% Calm Calm -- 30.12 in1020.0 mb 0.00 in0.0 mm 0.00 in0.0 mm 0.16 in4.1 mm
03:11 PM 57.8°F14.3°C 57.1°F13.9°C 77% Calm Calm -- 30.11 in1019.6 mb 0.00 in0.0 mm 0.00 in0.0 mm 0.16 in4.1 mm
03:14 PM 58.1°F14.5°C 57.4°F14.1°C 78% Calm Calm -- 30.11 in1019.6 mb 0.00 in0.0 mm 0.00 in0.0 mm 0.16 in4.1 mm
03:17 PM 57.7°F14.3°C 57.3°F14.1°C 77% Calm Calm -- 30.11 in1019.6 mb 0.00 in0.0 mm 0.00 in0.0 mm 0.16 in4.1 mm
03:20 PM 57.3°F14.1°C 57.3°F14.1°C 78% Calm Calm -- 30.12 in1020.0 mb 0.00 in0.0 mm 0.00 in0.0 mm 0.16 in4.1 mm
03:23 PM 57.0°F13.9°C 56.9°F13.8°C 77% 0.8 mph SW1.3 kmh SW 0.8 mph1.3 kmh 30.11 in1019.6 mb 0.00 in0.0 mm 0.00 in0.0 mm 0.16 in4.1 mm
03:26 PM 57.0°F13.9°C 57.1°F13.9°C 77% Calm Calm -- 30.11 in1019.6 mb 0.00 in0.0 mm 0.00 in0.0 mm 0.16 in4.1 mm
03:29 PM 56.6°F13.7°C 57.0°F13.9°C 77% Calm Calm -- 30.12 in1020.0 mb 0.00 in0.0 mm 0.00 in0.0 mm 0.16 in4.1 mm
03:32 PM 56.4°F13.6°C 56.7°F13.7°C 77% Calm Calm -- 30.11 in1019.6 mb 0.00 in0.0 mm 0.00 in0.0 mm 0.16 in4.1 mm
03:35 PM 56.8°F13.8°C 56.7°F13.7°C 77% Calm Calm -- 30.11 in1019.6 mb 0.00 in0.0 mm 0.00 in0.0 mm 0.16 in4.1 mm
03:38 PM 56.8°F13.8°C 57.0°F13.9°C 77% Calm Calm -- 30.11 in1019.6 mb 0.00 in0.0 mm 0.00 in0.0 mm 0.16 in4.1 mm
03:41 PM 57.0°F13.9°C 56.9°F13.8°C 78% Calm Calm -- 30.11 in1019.6 mb 0.00 in0.0 mm 0.00 in0.0 mm 0.16 in4.1 mm
03:44 PM 57.2°F14.0°C 57.3°F14.1°C 78% Calm Calm -- 30.11 in1019.6 mb 0.00 in0.0 mm 0.00 in0.0 mm 0.16 in4.1 mm
03:47 PM 57.0°F13.9°C 57.3°F14.1°C 78% Calm Calm -- 30.12 in1020.0 mb 0.00 in0.0 mm 0.00 in0.0 mm 0.16 in4.1 mm
03:50 PM 56.8°F13.8°C 57.1°F13.9°C 77% Calm Calm -- 30.11 in1019.6 mb 0.00 in0.0 mm 0.00 in0.0 mm 0.16 in4.1 mm
03:53 PM 57.1°F13.9°C 57.0°F13.9°C 77% Calm Calm -- 30.11 in1019.6 mb 0.00 in0.0 mm 0.00 in0.0 mm 0.16 in4.1 mm
03:56 PM 57.3°F14.1°C 56.8°F13.8°C 76% 1.2 mph NW1.9 kmh NW 1.2 mph1.9 kmh 30.11 in1019.6 mb 0.00 in0.0 mm 0.00 in0.0 mm 0.16 in4.1 mm
04:05 PM 57.4°F14.1°C 56.4°F13.6°C 75% 0.8 mph NW1.3 kmh NW 0.8 mph1.3 kmh 30.11 in1019.6 mb 0.00 in0.0 mm 0.00 in0.0 mm 0.16 in4.1 mm
04:11 PM 56.9°F13.8°C 56.3°F13.5°C 75% 0.4 mph 0.6 kmh 0.4 mph0.6 kmh 30.11 in1019.6 mb 0.00 in0.0 mm 0.00 in0.0 mm 0.16 in4.1 mm
04:14 PM 56.9°F13.8°C 56.3°F13.5°C 75% Calm Calm -- 30.11 in1019.6 mb 0.00 in0.0 mm 0.00 in0.0 mm 0.16 in4.1 mm
04:17 PM 56.9°F13.8°C 56.4°F13.6°C 75% Calm Calm -- 30.11 in1019.6 mb 0.00 in0.0 mm 0.00 in0.0 mm 0.16 in4.1 mm
04:20 PM 57.2°F14.0°C 56.6°F13.7°C 76% Calm Calm -- 30.11 in1019.6 mb 0.00 in0.0 mm 0.00 in0.0 mm 0.16 in4.1 mm
04:23 PM 57.3°F14.1°C 56.8°F13.8°C 76% 1.2 mph NW1.9 kmh NW 1.2 mph1.9 kmh 30.11 in1019.6 mb 0.00 in0.0 mm 0.00 in0.0 mm 0.16 in4.1 mm
04:26 PM 57.3°F14.1°C 56.3°F13.5°C 75% 1.2 mph NW1.9 kmh NW 1.2 mph1.9 kmh 30.11 in1019.6 mb 0.00 in0.0 mm 0.00 in0.0 mm 0.16 in4.1 mm
04:29 PM 57.1°F13.9°C 56.2°F13.4°C 75% Calm Calm -- 30.11 in1019.6 mb 0.00 in0.0 mm 0.00 in0.0 mm 0.16 in4.1 mm
04:32 PM 57.0°F13.9°C 56.1°F13.4°C 75% Calm Calm -- 30.11 in1019.6 mb 0.00 in0.0 mm 0.00 in0.0 mm 0.16 in4.1 mm
04:35 PM 56.8°F13.8°C 56.3°F13.5°C 75% Calm Calm -- 30.10 in1019.3 mb 0.00 in0.0 mm 0.00 in0.0 mm 0.16 in4.1 mm
04:38 PM 56.6°F13.7°C 56.5°F13.6°C 76% 1.2 mph SW1.9 kmh SW 1.2 mph1.9 kmh 30.11 in1019.6 mb 0.00 in0.0 mm 0.00 in0.0 mm 0.16 in4.1 mm
04:41 PM 56.9°F13.8°C 56.2°F13.4°C 75% 0.4 mph WSW0.6 kmh WSW 0.4 mph0.6 kmh 30.11 in1019.6 mb 0.00 in0.0 mm 0.00 in0.0 mm 0.16 in4.1 mm
04:44 PM 56.5°F13.6°C 56.6°F13.7°C 76% Calm Calm -- 30.11 in1019.6 mb 0.00 in0.0 mm 0.00 in0.0 mm 0.16 in4.1 mm
04:47 PM 56.4°F13.6°C 56.3°F13.5°C 76% 0.4 mph NNW0.6 kmh NNW 0.4 mph0.6 kmh 30.11 in1019.6 mb 0.00 in0.0 mm 0.00 in0.0 mm 0.16 in4.1 mm
04:50 PM 56.5°F13.6°C 56.4°F13.6°C 76% Calm Calm -- 30.11 in1019.6 mb 0.00 in0.0 mm 0.00 in0.0 mm 0.16 in4.1 mm
04:53 PM 56.3°F13.5°C 56.5°F13.6°C 76% Calm Calm -- 30.11 in1019.6 mb 0.00 in0.0 mm 0.00 in0.0 mm 0.16 in4.1 mm
04:56 PM 56.2°F13.4°C 56.2°F13.4°C 76% 1.2 mph NNW1.9 kmh NNW 1.2 mph1.9 kmh 30.11 in1019.6 mb 0.00 in0.0 mm 0.00 in0.0 mm 0.16 in4.1 mm
04:59 PM 56.1°F13.4°C 56.5°F13.6°C 76% Calm Calm -- 30.11 in1019.6 mb 0.00 in0.0 mm 0.00 in0.0 mm 0.16 in4.1 mm
05:02 PM 56.1°F13.4°C 56.3°F13.5°C 76% 0.8 mph SW1.3 kmh SW 0.8 mph1.3 kmh 30.11 in1019.6 mb 0.00 in0.0 mm 0.00 in0.0 mm 0.16 in4.1 mm
05:05 PM 56.1°F13.4°C 56.3°F13.5°C 77% 1.2 mph NNW1.9 kmh NNW 1.2 mph1.9 kmh 30.11 in1019.6 mb 0.00 in0.0 mm 0.00 in0.0 mm 0.16 in4.1 mm
05:08 PM 55.9°F13.3°C 56.2°F13.4°C 77% 0.8 mph SW1.3 kmh SW 0.8 mph1.3 kmh 30.11 in1019.6 mb 0.00 in0.0 mm 0.00 in0.0 mm 0.16 in4.1 mm
05:11 PM 55.7°F13.2°C 56.3°F13.5°C 77% 1.6 mph SW2.6 kmh SW 1.6 mph2.6 kmh 30.11 in1019.6 mb 0.00 in0.0 mm 0.00 in0.0 mm 0.16 in4.1 mm
05:14 PM 55.5°F13.1°C 56.2°F13.4°C 77% 0.4 mph SW0.6 kmh SW 0.4 mph0.6 kmh 30.11 in1019.6 mb 0.00 in0.0 mm 0.00 in0.0 mm 0.16 in4.1 mm
05:17 PM 55.4°F13.0°C 56.1°F13.4°C 77% 1.2 mph SW1.9 kmh SW 1.2 mph1.9 kmh 30.11 in1019.6 mb 0.00 in0.0 mm 0.00 in0.0 mm 0.16 in4.1 mm
05:20 PM 55.2°F12.9°C 56.1°F13.4°C 77% Calm Calm -- 30.11 in1019.6 mb 0.00 in0.0 mm 0.00 in0.0 mm 0.16 in4.1 mm
05:23 PM 55.2°F12.9°C 56.0°F13.3°C 77% Calm Calm -- 30.11 in1019.6 mb 0.00 in0.0 mm 0.00 in0.0 mm 0.16 in4.1 mm
05:29 PM 54.7°F12.6°C 56.2°F13.4°C 77% Calm Calm -- 30.11 in1019.6 mb 0.00 in0.0 mm 0.00 in0.0 mm 0.16 in4.1 mm
05:32 PM 54.3°F12.4°C 55.7°F13.2°C 76% Calm Calm -- 30.11 in1019.6 mb 0.00 in0.0 mm 0.00 in0.0 mm 0.16 in4.1 mm
05:35 PM 54.1°F12.3°C 55.8°F13.2°C 77% Calm Calm -- 30.11 in1019.6 mb 0.00 in0.0 mm 0.00 in0.0 mm 0.16 in4.1 mm
05:38 PM 53.9°F12.2°C 56.0°F13.3°C 77% Calm Calm -- 30.11 in1019.6 mb 0.00 in0.0 mm 0.00 in0.0 mm 0.16 in4.1 mm
05:41 PM 53.5°F11.9°C 55.9°F13.3°C 77% Calm Calm -- 30.11 in1019.6 mb 0.00 in0.0 mm 0.00 in0.0 mm 0.16 in4.1 mm
05:44 PM 53.2°F11.8°C 55.7°F13.2°C 77% Calm Calm -- 30.11 in1019.6 mb 0.00 in0.0 mm 0.00 in0.0 mm 0.16 in4.1 mm
05:47 PM 52.1°F11.2°C 55.6°F13.1°C 77% Calm Calm -- 30.11 in1019.6 mb 0.00 in0.0 mm 0.00 in0.0 mm 0.16 in4.1 mm
05:50 PM 51.9°F11.1°C 54.9°F12.7°C 76% Calm Calm -- 30.11 in1019.6 mb 0.00 in0.0 mm 0.00 in0.0 mm 0.16 in4.1 mm
05:53 PM 51.4°F10.8°C 54.5°F12.5°C 76% Calm Calm -- 30.10 in1019.3 mb 0.00 in0.0 mm 0.00 in0.0 mm 0.16 in4.1 mm
05:59 PM 50.7°F10.4°C 54.0°F12.2°C 76% Calm Calm -- 30.11 in1019.6 mb 0.00 in0.0 mm 0.00 in0.0 mm 0.16 in4.1 mm
06:02 PM 50.3°F10.2°C 53.8°F12.1°C 76% Calm Calm -- 30.11 in1019.6 mb 0.00 in0.0 mm 0.00 in0.0 mm 0.16 in4.1 mm
06:05 PM 49.4°F9.7°C 53.5°F11.9°C 76% Calm Calm -- 30.11 in1019.6 mb 0.00 in0.0 mm 0.00 in0.0 mm 0.16 in4.1 mm
06:08 PM 49.2°F9.6°C 53.4°F11.9°C 76% Calm Calm -- 30.11 in1019.6 mb 0.00 in0.0 mm 0.00 in0.0 mm 0.16 in4.1 mm
06:11 PM 49.1°F9.5°C 53.4°F11.9°C 76% Calm Calm -- 30.11 in1019.6 mb 0.00 in0.0 mm 0.00 in0.0 mm 0.16 in4.1 mm
06:14 PM 48.9°F9.4°C 53.3°F11.8°C 77% Calm Calm -- 30.11 in1019.6 mb 0.00 in0.0 mm 0.00 in0.0 mm 0.16 in4.1 mm
06:17 PM 48.8°F9.3°C 53.0°F11.7°C 77% Calm Calm -- 30.12 in1020.0 mb 0.00 in0.0 mm 0.00 in0.0 mm 0.16 in4.1 mm
06:20 PM 48.7°F9.3°C 53.2°F11.8°C 78% Calm Calm -- 30.12 in1020.0 mb 0.00 in0.0 mm 0.00 in0.0 mm 0.16 in4.1 mm
06:23 PM 48.7°F9.3°C 53.0°F11.7°C 77% Calm Calm -- 30.12 in1020.0 mb 0.00 in0.0 mm 0.00 in0.0 mm 0.16 in4.1 mm
06:26 PM 49.0°F9.4°C 53.1°F11.7°C 77% Calm Calm -- 30.13 in1020.3 mb 0.00 in0.0 mm 0.00 in0.0 mm 0.16 in4.1 mm
06:29 PM 49.4°F9.7°C 53.1°F11.7°C 78% Calm Calm -- 30.12 in1020.0 mb 0.00 in0.0 mm 0.00 in0.0 mm 0.16 in4.1 mm
06:32 PM 49.2°F9.6°C 53.2°F11.8°C 79% Calm Calm -- 30.12 in1020.0 mb 0.00 in0.0 mm 0.00 in0.0 mm 0.16 in4.1 mm
06:35 PM 49.1°F9.5°C 53.3°F11.8°C 79% 0.4 mph E0.6 kmh E 0.4 mph0.6 kmh 30.12 in1020.0 mb 0.00 in0.0 mm 0.00 in0.0 mm 0.16 in4.1 mm
06:38 PM 49.2°F9.6°C 53.3°F11.8°C 79% Calm Calm -- 30.12 in1020.0 mb 0.00 in0.0 mm 0.00 in0.0 mm 0.16 in4.1 mm
06:41 PM 49.1°F9.5°C 53.2°F11.8°C 79% Calm Calm -- 30.13 in1020.3 mb 0.00 in0.0 mm 0.00 in0.0 mm 0.16 in4.1 mm
06:44 PM 48.7°F9.3°C 53.2°F11.8°C 80% Calm Calm -- 30.13 in1020.3 mb 0.00 in0.0 mm 0.00 in0.0 mm 0.16 in4.1 mm
06:47 PM 48.1°F8.9°C 53.0°F11.7°C 79% Calm Calm -- 30.13 in1020.3 mb 0.00 in0.0 mm 0.00 in0.0 mm 0.16 in4.1 mm
06:50 PM 47.6°F8.7°C 52.7°F11.5°C 79% Calm Calm -- 30.13 in1020.3 mb 0.00 in0.0 mm 0.00 in0.0 mm 0.16 in4.1 mm
06:53 PM 47.5°F8.6°C 52.6°F11.4°C 79% Calm Calm -- 30.13 in1020.3 mb 0.00 in0.0 mm 0.00 in0.0 mm 0.16 in4.1 mm
06:56 PM 47.9°F8.8°C 52.7°F11.5°C 79% Calm Calm -- 30.13 in1020.3 mb 0.00 in0.0 mm 0.00 in0.0 mm 0.16 in4.1 mm
06:59 PM 47.4°F8.6°C 52.1°F11.2°C 78% Calm Calm -- 30.13 in1020.3 mb 0.00 in0.0 mm 0.00 in0.0 mm 0.16 in4.1 mm
07:02 PM 47.3°F8.5°C 52.2°F11.2°C 79% Calm Calm -- 30.13 in1020.3 mb 0.00 in0.0 mm 0.00 in0.0 mm 0.16 in4.1 mm
07:05 PM 47.2°F8.4°C 52.4°F11.3°C 80% Calm Calm -- 30.13 in1020.3 mb 0.00 in0.0 mm 0.00 in0.0 mm 0.16 in4.1 mm
07:08 PM 47.2°F8.4°C 51.9°F11.1°C 79% Calm Calm -- 30.13 in1020.3 mb 0.00 in0.0 mm 0.00 in0.0 mm 0.16 in4.1 mm
07:11 PM 47.0°F8.3°C 51.6°F10.9°C 79% Calm Calm -- 30.13 in1020.3 mb 0.00 in0.0 mm 0.00 in0.0 mm 0.16 in4.1 mm
07:14 PM 46.6°F8.1°C 51.6°F10.9°C 79% Calm Calm -- 30.13 in1020.3 mb 0.00 in0.0 mm 0.00 in0.0 mm 0.16 in4.1 mm
07:17 PM 46.0°F7.8°C 51.1°F10.6°C 78% Calm Calm -- 30.13 in1020.3 mb 0.00 in0.0 mm 0.00 in0.0 mm 0.16 in4.1 mm
07:20 PM 46.0°F7.8°C 51.0°F10.6°C 78% Calm Calm -- 30.13 in1020.3 mb 0.00 in0.0 mm 0.00 in0.0 mm 0.16 in4.1 mm
07:23 PM 45.7°F7.6°C 50.5°F10.3°C 77% Calm Calm -- 30.13 in1020.3 mb 0.00 in0.0 mm 0.00 in0.0 mm 0.16 in4.1 mm
07:26 PM 45.6°F7.6°C 50.4°F10.2°C 77% Calm Calm -- 30.13 in1020.3 mb 0.00 in0.0 mm 0.00 in0.0 mm 0.16 in4.1 mm
07:29 PM 45.8°F7.7°C 50.5°F10.3°C 78% Calm Calm -- 30.13 in1020.3 mb 0.00 in0.0 mm 0.00 in0.0 mm 0.16 in4.1 mm
07:32 PM 46.6°F8.1°C 51.0°F10.6°C 80% Calm Calm -- 30.13 in1020.3 mb 0.00 in0.0 mm 0.00 in0.0 mm 0.16 in4.1 mm
07:35 PM 44.9°F7.2°C 50.5°F10.3°C 79% Calm Calm -- 30.13 in1020.3 mb 0.00 in0.0 mm 0.00 in0.0 mm 0.16 in4.1 mm
07:38 PM 45.3°F7.4°C 50.1°F10.1°C 78% Calm Calm -- 30.13 in1020.3 mb 0.00 in0.0 mm 0.00 in0.0 mm 0.16 in4.1 mm
07:41 PM 44.8°F7.1°C 50.0°F10.0°C 78% Calm Calm -- 30.13 in1020.3 mb 0.00 in0.0 mm 0.00 in0.0 mm 0.16 in4.1 mm
07:44 PM 44.9°F7.2°C 49.7°F9.8°C 78% Calm Calm -- 30.13 in1020.3 mb 0.00 in0.0 mm 0.00 in0.0 mm 0.16 in4.1 mm
07:47 PM 44.9°F7.2°C 49.7°F9.8°C 78% Calm Calm -- 30.13 in1020.3 mb 0.00 in0.0 mm 0.00 in0.0 mm 0.16 in4.1 mm
07:50 PM 44.6°F7.0°C 49.7°F9.8°C 79% Calm Calm -- 30.13 in1020.3 mb 0.00 in0.0 mm 0.00 in0.0 mm 0.16 in4.1 mm
07:53 PM 44.3°F6.8°C 49.7°F9.8°C 79% Calm Calm -- 30.13 in1020.3 mb 0.00 in0.0 mm 0.00 in0.0 mm 0.16 in4.1 mm
07:56 PM 44.3°F6.8°C 49.4°F9.7°C 79% Calm Calm -- 30.13 in1020.3 mb 0.00 in0.0 mm 0.00 in0.0 mm 0.16 in4.1 mm
07:59 PM 43.8°F6.6°C 49.1°F9.5°C 79% Calm Calm -- 30.13 in1020.3 mb 0.00 in0.0 mm 0.00 in0.0 mm 0.16 in4.1 mm
08:02 PM 43.5°F6.4°C 48.9°F9.4°C 78% Calm Calm -- 30.13 in1020.3 mb 0.00 in0.0 mm 0.00 in0.0 mm 0.16 in4.1 mm
08:05 PM 43.6°F6.4°C 48.8°F9.3°C 78% Calm Calm -- 30.13 in1020.3 mb 0.00 in0.0 mm 0.00 in0.0 mm 0.16 in4.1 mm
08:08 PM 44.0°F6.7°C 48.7°F9.3°C 79% Calm Calm -- 30.13 in1020.3 mb 0.00 in0.0 mm 0.00 in0.0 mm 0.16 in4.1 mm
08:11 PM 43.6°F6.4°C 48.8°F9.3°C 79% Calm Calm -- 30.13 in1020.3 mb 0.00 in0.0 mm 0.00 in0.0 mm 0.16 in4.1 mm
08:14 PM 43.5°F6.4°C 48.6°F9.2°C 79% Calm Calm -- 30.13 in1020.3 mb 0.00 in0.0 mm 0.00 in0.0 mm 0.16 in4.1 mm
08:17 PM 43.3°F6.3°C 48.4°F9.1°C 78% Calm Calm -- 30.13 in1020.3 mb 0.00 in0.0 mm 0.00 in0.0 mm 0.16 in4.1 mm
08:20 PM 44.4°F6.9°C 48.4°F9.1°C 79% Calm Calm -- 30.12 in1020.0 mb 0.00 in0.0 mm 0.00 in0.0 mm 0.16 in4.1 mm
08:23 PM 44.7°F7.1°C 48.6°F9.2°C 80% Calm Calm -- 30.12 in1020.0 mb 0.00 in0.0 mm 0.00 in0.0 mm 0.16 in4.1 mm
08:26 PM 43.3°F6.3°C 48.4°F9.1°C 79% Calm Calm -- 30.13 in1020.3 mb 0.00 in0.0 mm 0.00 in0.0 mm 0.16 in4.1 mm
08:29 PM 43.1°F6.2°C 48.3°F9.1°C 79% Calm Calm -- 30.12 in1020.0 mb 0.00 in0.0 mm 0.00 in0.0 mm 0.16 in4.1 mm
08:32 PM 42.7°F5.9°C 48.1°F8.9°C 79% Calm Calm -- 30.13 in1020.3 mb 0.00 in0.0 mm 0.00 in0.0 mm 0.16 in4.1 mm
08:35 PM 42.7°F5.9°C 48.1°F8.9°C 80% Calm Calm -- 30.13 in1020.3 mb 0.00 in0.0 mm 0.00 in0.0 mm 0.16 in4.1 mm
08:38 PM 42.4°F5.8°C 47.8°F8.8°C 79% Calm Calm -- 30.13 in1020.3 mb 0.00 in0.0 mm 0.00 in0.0 mm 0.16 in4.1 mm
08:41 PM 41.9°F5.5°C 47.7°F8.7°C 79% Calm Calm -- 30.13 in1020.3 mb 0.00 in0.0 mm 0.00 in0.0 mm 0.16 in4.1 mm
08:44 PM 42.4°F5.8°C 47.3°F8.5°C 79% Calm Calm -- 30.13 in1020.3 mb 0.00 in0.0 mm 0.00 in0.0 mm 0.16 in4.1 mm
08:47 PM 42.5°F5.8°C 47.3°F8.5°C 79% Calm Calm -- 30.13 in1020.3 mb 0.00 in0.0 mm 0.00 in0.0 mm 0.16 in4.1 mm
08:50 PM 42.1°F5.6°C 47.6°F8.7°C 80% Calm Calm -- 30.13 in1020.3 mb 0.00 in0.0 mm 0.00 in0.0 mm 0.16 in4.1 mm
08:53 PM 41.3°F5.2°C 47.1°F8.4°C 79% Calm Calm -- 30.13 in1020.3 mb 0.00 in0.0 mm 0.00 in0.0 mm 0.16 in4.1 mm
08:56 PM 42.5°F5.8°C 47.1°F8.4°C 80% Calm Calm -- 30.13 in1020.3 mb 0.00 in0.0 mm 0.00 in0.0 mm 0.16 in4.1 mm
08:59 PM 41.9°F5.5°C 47.0°F8.3°C 80% Calm Calm -- 30.13 in1020.3 mb 0.00 in0.0 mm 0.00 in0.0 mm 0.16 in4.1 mm
09:05 PM 41.3°F5.2°C 46.8°F8.2°C 80% Calm Calm -- 30.13 in1020.3 mb 0.00 in0.0 mm 0.00 in0.0 mm 0.16 in4.1 mm
09:08 PM 41.3°F5.2°C 46.7°F8.2°C 80% Calm Calm -- 30.12 in1020.0 mb 0.00 in0.0 mm 0.00 in0.0 mm 0.16 in4.1 mm
09:11 PM 41.3°F5.2°C 46.6°F8.1°C 80% Calm Calm -- 30.12 in1020.0 mb 0.00 in0.0 mm 0.00 in0.0 mm 0.16 in4.1 mm
09:14 PM 41.6°F5.3°C 46.4°F8.0°C 80% Calm Calm -- 30.13 in1020.3 mb 0.00 in0.0 mm 0.00 in0.0 mm 0.16 in4.1 mm
09:17 PM 42.1°F5.6°C 46.8°F8.2°C 80% Calm Calm -- 30.12 in1020.0 mb 0.00 in0.0 mm 0.00 in0.0 mm 0.16 in4.1 mm
09:20 PM 42.6°F5.9°C 46.8°F8.2°C 81% Calm Calm -- 30.13 in1020.3 mb 0.00 in0.0 mm 0.00 in0.0 mm 0.16 in4.1 mm
09:23 PM 41.8°F5.4°C 46.7°F8.2°C 80% Calm Calm -- 30.13 in1020.3 mb 0.00 in0.0 mm 0.00 in0.0 mm 0.16 in4.1 mm
09:26 PM 41.6°F5.3°C 46.3°F7.9°C 80% Calm Calm -- 30.13 in1020.3 mb 0.00 in0.0 mm 0.00 in0.0 mm 0.16 in4.1 mm
09:29 PM 41.3°F5.2°C 46.7°F8.2°C 81% Calm Calm -- 30.13 in1020.3 mb 0.00 in0.0 mm 0.00 in0.0 mm 0.16 in4.1 mm
09:32 PM 41.3°F5.2°C 46.6°F8.1°C 81% Calm Calm -- 30.13 in1020.3 mb 0.00 in0.0 mm 0.00 in0.0 mm 0.16 in4.1 mm
09:38 PM 41.0°F5.0°C 46.3°F7.9°C 81% Calm Calm -- 30.13 in1020.3 mb 0.00 in0.0 mm 0.00 in0.0 mm 0.16 in4.1 mm
09:44 PM 40.3°F4.6°C 46.1°F7.8°C 80% Calm Calm -- 30.13 in1020.3 mb 0.00 in0.0 mm 0.00 in0.0 mm 0.16 in4.1 mm
09:47 PM 40.0°F4.4°C 45.7°F7.6°C 80% Calm Calm -- 30.13 in1020.3 mb 0.00 in0.0 mm 0.00 in0.0 mm 0.16 in4.1 mm
09:50 PM 39.8°F4.3°C 45.6°F7.6°C 80% Calm Calm -- 30.13 in1020.3 mb 0.00 in0.0 mm 0.00 in0.0 mm 0.16 in4.1 mm
09:53 PM 40.4°F4.7°C 45.4°F7.4°C 80% Calm Calm -- 30.13 in1020.3 mb 0.00 in0.0 mm 0.00 in0.0 mm 0.16 in4.1 mm
09:56 PM 40.0°F4.4°C 45.6°F7.6°C 81% Calm Calm -- 30.13 in1020.3 mb 0.00 in0.0 mm 0.00 in0.0 mm 0.16 in4.1 mm
09:59 PM 40.0°F4.4°C 45.2°F7.3°C 80% Calm Calm -- 30.13 in1020.3 mb 0.00 in0.0 mm 0.00 in0.0 mm 0.16 in4.1 mm
10:02 PM 40.0°F4.4°C 45.1°F7.3°C 80% Calm Calm -- 30.13 in1020.3 mb 0.00 in0.0 mm 0.00 in0.0 mm 0.16 in4.1 mm
10:05 PM 40.1°F4.5°C 45.4°F7.4°C 81% Calm Calm -- 30.13 in1020.3 mb 0.00 in0.0 mm 0.00 in0.0 mm 0.16 in4.1 mm
10:08 PM 40.0°F4.4°C 45.6°F7.6°C 82% Calm Calm -- 30.12 in1020.0 mb 0.00 in0.0 mm 0.00 in0.0 mm 0.16 in4.1 mm
10:11 PM 40.0°F4.4°C 44.9°F7.2°C 80% Calm Calm -- 30.13 in1020.3 mb 0.00 in0.0 mm 0.00 in0.0 mm 0.16 in4.1 mm
10:14 PM 39.5°F4.2°C 45.2°F7.3°C 81% Calm Calm -- 30.13 in1020.3 mb 0.00 in0.0 mm 0.00 in0.0 mm 0.16 in4.1 mm
10:17 PM 40.3°F4.6°C 45.3°F7.4°C 82% Calm Calm -- 30.13 in1020.3 mb 0.00 in0.0 mm 0.00 in0.0 mm 0.16 in4.1 mm
10:20 PM 40.4°F4.7°C 45.4°F7.4°C 82% Calm Calm -- 30.13 in1020.3 mb 0.00 in0.0 mm 0.00 in0.0 mm 0.16 in4.1 mm
10:23 PM 39.3°F4.1°C 45.0°F7.2°C 81% Calm Calm -- 30.13 in1020.3 mb 0.00 in0.0 mm 0.00 in0.0 mm 0.16 in4.1 mm
10:26 PM 39.5°F4.2°C 45.1°F7.3°C 81% Calm Calm -- 30.13 in1020.3 mb 0.00 in0.0 mm 0.00 in0.0 mm 0.16 in4.1 mm
10:29 PM 40.2°F4.6°C 45.1°F7.3°C 81% Calm Calm -- 30.12 in1020.0 mb 0.00 in0.0 mm 0.00 in0.0 mm 0.16 in4.1 mm
10:32 PM 41.6°F5.3°C 45.2°F7.3°C 83% Calm Calm -- 30.13 in1020.3 mb 0.00 in0.0 mm 0.00 in0.0 mm 0.16 in4.1 mm
10:35 PM 40.7°F4.8°C 45.1°F7.3°C 82% Calm Calm -- 30.13 in1020.3 mb 0.00 in0.0 mm 0.00 in0.0 mm 0.16 in4.1 mm
10:41 PM 40.7°F4.8°C 45.2°F7.3°C 83% Calm Calm -- 30.13 in1020.3 mb 0.00 in0.0 mm 0.00 in0.0 mm 0.16 in4.1 mm
10:44 PM 40.9°F4.9°C 45.3°F7.4°C 83% Calm Calm -- 30.13 in1020.3 mb 0.00 in0.0 mm 0.00 in0.0 mm 0.16 in4.1 mm
10:50 PM 41.1°F5.1°C 45.6°F7.6°C 84% Calm Calm -- 30.12 in1020.0 mb 0.00 in0.0 mm 0.00 in0.0 mm 0.16 in4.1 mm
10:53 PM 41.3°F5.2°C 45.7°F7.6°C 84% Calm Calm -- 30.12 in1020.0 mb 0.00 in0.0 mm 0.00 in0.0 mm 0.16 in4.1 mm
10:56 PM 41.5°F5.3°C 45.5°F7.5°C 84% Calm Calm -- 30.12 in1020.0 mb 0.00 in0.0 mm 0.00 in0.0 mm 0.16 in4.1 mm
10:59 PM 41.7°F5.4°C 45.8°F7.7°C 84% Calm Calm -- 30.12 in1020.0 mb 0.00 in0.0 mm 0.00 in0.0 mm 0.16 in4.1 mm
11:02 PM 42.0°F5.6°C 45.9°F7.7°C 85% Calm Calm -- 30.12 in1020.0 mb 0.00 in0.0 mm 0.00 in0.0 mm 0.00 in0.0 mm
11:05 PM 42.2°F5.7°C 46.1°F7.8°C 85% Calm Calm -- 30.12 in1020.0 mb 0.00 in0.0 mm 0.00 in0.0 mm 0.00 in0.0 mm
11:08 PM 42.6°F5.9°C 45.8°F7.7°C 84% Calm Calm -- 30.11 in1019.6 mb 0.00 in0.0 mm 0.00 in0.0 mm 0.00 in0.0 mm
11:11 PM 42.8°F6.0°C 46.5°F8.1°C 86% Calm Calm -- 30.12 in1020.0 mb 0.00 in0.0 mm 0.00 in0.0 mm 0.00 in0.0 mm
11:14 PM 42.9°F6.1°C 46.6°F8.1°C 86% Calm Calm -- 30.11 in1019.6 mb 0.00 in0.0 mm 0.00 in0.0 mm 0.00 in0.0 mm
11:17 PM 43.3°F6.3°C 46.9°F8.3°C 86% Calm Calm -- 30.12 in1020.0 mb 0.00 in0.0 mm 0.00 in0.0 mm 0.00 in0.0 mm
11:20 PM 43.4°F6.3°C 46.9°F8.3°C 86% Calm Calm -- 30.12 in1020.0 mb 0.00 in0.0 mm 0.00 in0.0 mm 0.00 in0.0 mm
11:23 PM 43.5°F6.4°C 47.0°F8.3°C 87% Calm Calm -- 30.12 in1020.0 mb 0.00 in0.0 mm 0.00 in0.0 mm 0.00 in0.0 mm
11:26 PM 43.8°F6.6°C 47.3°F8.5°C 87% Calm Calm -- 30.11 in1019.6 mb 0.00 in0.0 mm 0.00 in0.0 mm 0.00 in0.0 mm
11:29 PM 44.0°F6.7°C 47.3°F8.5°C 87% Calm Calm -- 30.11 in1019.6 mb 0.00 in0.0 mm 0.00 in0.0 mm 0.00 in0.0 mm
11:32 PM 44.5°F6.9°C 47.5°F8.6°C 87% Calm Calm -- 30.11 in1019.6 mb 0.00 in0.0 mm 0.00 in0.0 mm 0.00 in0.0 mm
11:35 PM 44.7°F7.1°C 47.6°F8.7°C 87% Calm Calm -- 30.10 in1019.3 mb 0.00 in0.0 mm 0.00 in0.0 mm 0.00 in0.0 mm
11:38 PM 44.5°F6.9°C 47.6°F8.7°C 87% Calm Calm -- 30.11 in1019.6 mb 0.00 in0.0 mm 0.00 in0.0 mm 0.00 in0.0 mm
11:41 PM 44.9°F7.2°C 47.8°F8.8°C 87% Calm Calm -- 30.10 in1019.3 mb 0.00 in0.0 mm 0.00 in0.0 mm 0.00 in0.0 mm
11:44 PM 44.7°F7.1°C 48.0°F8.9°C 87% Calm Calm -- 30.10 in1019.3 mb 0.00 in0.0 mm 0.00 in0.0 mm 0.00 in0.0 mm
11:47 PM 44.8°F7.1°C 48.1°F8.9°C 88% Calm Calm -- 30.10 in1019.3 mb 0.00 in0.0 mm 0.00 in0.0 mm 0.00 in0.0 mm
11:50 PM 45.1°F7.3°C 48.2°F9.0°C 88% Calm Calm -- 30.10 in1019.3 mb 0.00 in0.0 mm 0.00 in0.0 mm 0.00 in0.0 mm
11:53 PM 45.2°F7.3°C 48.0°F8.9°C 88% Calm Calm -- 30.10 in1019.3 mb 0.00 in0.0 mm 0.00 in0.0 mm 0.00 in0.0 mm
11:56 PM 45.2°F7.3°C 48.5°F9.2°C 89% Calm Calm -- 30.10 in1019.3 mb 0.00 in0.0 mm 0.00 in0.0 mm 0.00 in0.0 mm
11:59 PM 45.4°F7.4°C 48.2°F9.0°C 88% Calm Calm -- 30.10 in1019.3 mb 0.00 in0.0 mm 0.00 in0.0 mm 0.00 in0.0 mm